Wetterdaten: Montag, 17.05.2021
Datum Zeit Temp. Aussen Temp. o. S. Temp +5cm Feuchte Auss Luftdruck Regen Sonnenschein Regendauer Solar Windben Empfang
17.05.2021 00:00 10,1 C 9,4 C 7,3 C 92 % 1001,2 hPa 0,0 l/m 0 min 0 min 0 W/m 3,2 km/h (1 Bft) 95,74 %
17.05.2021 00:02 10,1 C 9,4 C 7,3 C 92 % 1001,2 hPa 0,0 l/m 0 min 0 min 0 W/m 3,2 km/h (1 Bft) 14,29 %
17.05.2021 00:04 10,1 C 9,4 C 7,3 C 92 % 1001,2 hPa 0,0 l/m 0 min 0 min 0 W/m 3,2 km/h (1 Bft) 69,23 %
17.05.2021 00:08 10,1 C 9,4 C 7,3 C 93 % 1001,2 hPa 0,0 l/m 0 min 0 min 0 W/m 3,2 km/h (1 Bft) 95,70 %
17.05.2021 00:10 10,1 C 9,4 C 7,3 C 93 % 1001,2 hPa 0,0 l/m 0 min 0 min 0 W/m 6,4 km/h (2 Bft) 95,74 %
17.05.2021 00:12 10,1 C 9,4 C 7,3 C 93 % 1001,2 hPa 0,0 l/m 0 min 0 min 0 W/m 3,2 km/h (1 Bft) 95,74 %
17.05.2021 00:14 10,1 C 9,4 C 7,3 C 93 % 1001,2 hPa 0,0 l/m 0 min 0 min 0 W/m 3,2 km/h (1 Bft) 97,87 %
17.05.2021 00:16 10,1 C 9,4 C 7,3 C 93 % 1001,1 hPa 0,0 l/m 0 min 0 min 0 W/m 6,4 km/h (2 Bft) 97,87 %
17.05.2021 00:18 10,1 C 9,4 C 7,3 C 93 % 1001,1 hPa 0,0 l/m 0 min 0 min 0 W/m 3,2 km/h (1 Bft) 95,74 %
17.05.2021 00:20 10,1 C 9,4 C 7,3 C 93 % 1001,1 hPa 0,0 l/m 0 min 0 min 0 W/m 3,2 km/h (1 Bft) 97,83 %
17.05.2021 00:22 10,1 C 9,4 C 7,3 C 93 % 1001,1 hPa 0,0 l/m 0 min 0 min 0 W/m 3,2 km/h (1 Bft) 93,62 %
17.05.2021 00:24 10,1 C 9,4 C 7,3 C 93 % 1001,1 hPa 0,0 l/m 0 min 0 min 0 W/m 3,2 km/h (1 Bft) 97,87 %
17.05.2021 00:26 10,1 C 9,4 C 7,3 C 93 % 1001,1 hPa 0,0 l/m 0 min 0 min 0 W/m 3,2 km/h (1 Bft) 97,87 %
17.05.2021 00:28 10,1 C 9,4 C 7,3 C 93 % 1001,2 hPa 0,0 l/m 0 min 0 min 0 W/m 6,4 km/h (2 Bft) 97,87 %
17.05.2021 00:30 10,1 C 9,4 C 7,3 C 93 % 1001,2 hPa 0,0 l/m 0 min 0 min 0 W/m 3,2 km/h (1 Bft) 95,65 %
17.05.2021 00:32 10,1 C 9,4 C 7,3 C 93 % 1001,2 hPa 0,0 l/m 0 min 0 min 0 W/m 3,2 km/h (1 Bft) 97,92 %
17.05.2021 00:34 10,1 C 9,4 C 7,3 C 93 % 1001,2 hPa 0,0 l/m 0 min 0 min 0 W/m 3,2 km/h (1 Bft) 97,87 %
17.05.2021 00:36 10,1 C 9,4 C 7,3 C 93 % 1001,1 hPa 0,0 l/m 0 min 0 min 0 W/m 3,2 km/h (1 Bft) 97,87 %
17.05.2021 00:38 10,0 C 9,4 C 7,3 C 93 % 1001,2 hPa 0,0 l/m 0 min 0 min 0 W/m 6,4 km/h (2 Bft) 97,87 %
17.05.2021 00:40 10,0 C 9,4 C 7,3 C 93 % 1001,1 hPa 0,0 l/m 0 min 0 min 0 W/m 3,2 km/h (1 Bft) 97,87 %
17.05.2021 00:42 10,0 C 9,4 C 7,3 C 93 % 1001,1 hPa 0,0 l/m 0 min 0 min 0 W/m 6,4 km/h (2 Bft) 97,83 %
17.05.2021 00:44 10,0 C 9,4 C 7,3 C 93 % 1001,2 hPa 0,0 l/m 0 min 0 min 0 W/m 6,4 km/h (2 Bft) 97,87 %
17.05.2021 00:46 10,0 C 9,4 C 7,3 C 93 % 1001,1 hPa 0,0 l/m 0 min 0 min 0 W/m 6,4 km/h (2 Bft) 97,87 %
17.05.2021 00:48 10,0 C 8,9 C 7,3 C 93 % 1001,2 hPa 0,0 l/m 0 min 0 min 0 W/m 6,4 km/h (2 Bft) 97,87 %
17.05.2021 00:50 10,0 C 8,9 C 7,3 C 93 % 1001,1 hPa 0,0 l/m 0 min 0 min 0 W/m 6,4 km/h (2 Bft) 95,74 %
17.05.2021 00:52 10,0 C 8,9 C 7,3 C 93 % 1001,1 hPa 0,0 l/m 0 min 0 min 0 W/m 6,4 km/h (2 Bft) 97,87 %
17.05.2021 00:54 10,0 C 8,9 C 7,3 C 93 % 1001,1 hPa 0,0 l/m 0 min 0 min 0 W/m 6,4 km/h (2 Bft) 100,00 %
17.05.2021 00:56 9,9 C 8,9 C 7,3 C 93 % 1001,2 hPa 0,0 l/m 0 min 0 min 0 W/m 3,2 km/h (1 Bft) 97,87 %
17.05.2021 00:58 9,9 C 8,9 C 7,3 C 93 % 1001,1 hPa 0,0 l/m 0 min 0 min 0 W/m 3,2 km/h (1 Bft) 97,87 %
17.05.2021 01:00 9,9 C 8,9 C 7,3 C 93 % 1001,1 hPa 0,0 l/m 0 min 0 min 0 W/m 6,4 km/h (2 Bft) 100,00 %
17.05.2021 01:02 9,9 C 8,9 C 7,3 C 93 % 1001,1 hPa 0,0 l/m 0 min 0 min 0 W/m 3,2 km/h (1 Bft) 100,00 %
17.05.2021 01:04 9,9 C 8,9 C 7,3 C 93 % 1001,1 hPa 0,0 l/m 0 min 0 min 0 W/m 3,2 km/h (1 Bft) 100,00 %
17.05.2021 01:06 9,9 C 8,9 C 7,3 C 93 % 1001,1 hPa 0,0 l/m 0 min 0 min 0 W/m 6,4 km/h (2 Bft) 95,65 %
17.05.2021 01:08 9,9 C 8,9 C 7,3 C 93 % 1001,2 hPa 0,0 l/m 0 min 0 min 0 W/m 3,2 km/h (1 Bft) 97,87 %
17.05.2021 01:10 9,9 C 8,9 C 7,3 C 93 % 1001,2 hPa 0,0 l/m 0 min 0 min 0 W/m 6,4 km/h (2 Bft) 97,87 %
17.05.2021 01:12 9,9 C 8,9 C 7,3 C 93 % 1001,2 hPa 0,0 l/m 0 min 0 min 0 W/m 6,4 km/h (2 Bft) 100,00 %
17.05.2021 01:14 9,9 C 8,9 C 7,3 C 93 % 1001,2 hPa 0,0 l/m 0 min 0 min 0 W/m 6,4 km/h (2 Bft) 100,00 %
17.05.2021 01:16 9,9 C 8,9 C 7,3 C 94 % 1001,2 hPa 0,0 l/m 0 min 0 min 0 W/m 9,7 km/h (2 Bft) 95,74 %
17.05.2021 01:18 9,9 C 8,9 C 7,3 C 94 % 1001,2 hPa 0,0 l/m 0 min 0 min 0 W/m 12,9 km/h (3 Bft) 95,65 %
17.05.2021 01:20 9,8 C 8,9 C 7,3 C 94 % 1001,2 hPa 0,0 l/m 0 min 0 min 0 W/m 6,4 km/h (2 Bft) 97,87 %
17.05.2021 01:22 9,8 C 8,9 C 7,3 C 94 % 1001,2 hPa 0,0 l/m 0 min 0 min 0 W/m 6,4 km/h (2 Bft) 97,87 %
17.05.2021 01:24 9,8 C 8,9 C 7,3 C 94 % 1001,2 hPa 0,0 l/m 0 min 0 min 0 W/m 12,9 km/h (3 Bft) 97,87 %
17.05.2021 01:26 9,8 C 8,9 C 7,3 C 94 % 1001,2 hPa 0,0 l/m 0 min 0 min 0 W/m 6,4 km/h (2 Bft) 95,74 %
17.05.2021 01:28 9,8 C 8,9 C 7,3 C 94 % 1001,2 hPa 0,0 l/m 0 min 0 min 0 W/m 6,4 km/h (2 Bft) 97,87 %
17.05.2021 01:30 9,8 C 8,9 C 7,3 C 94 % 1001,2 hPa 0,0 l/m 0 min 0 min 0 W/m 12,9 km/h (3 Bft) 97,83 %
17.05.2021 01:32 9,8 C 8,9 C 7,3 C 94 % 1001,2 hPa 0,0 l/m 0 min 0 min 0 W/m 6,4 km/h (2 Bft) 97,92 %
17.05.2021 01:34 9,8 C 8,9 C 7,3 C 94 % 1001,2 hPa 0,0 l/m 0 min 0 min 0 W/m 6,4 km/h (2 Bft) 97,87 %
17.05.2021 01:36 9,8 C 8,9 C 7,3 C 94 % 1001,1 hPa 0,0 l/m 0 min 0 min 0 W/m 6,4 km/h (2 Bft) 97,87 %
17.05.2021 01:38 9,8 C 8,9 C 7,3 C 94 % 1001,2 hPa 0,0 l/m 0 min 0 min 0 W/m 6,4 km/h (2 Bft) 97,87 %
17.05.2021 01:40 9,8 C 8,9 C 7,3 C 94 % 1001,2 hPa 0,0 l/m 0 min 0 min 0 W/m 9,7 km/h (2 Bft) 97,87 %
17.05.2021 01:42 9,8 C 8,9 C 7,3 C 94 % 1001,2 hPa 0,0 l/m 0 min 0 min 0 W/m 6,4 km/h (2 Bft) 97,83 %
17.05.2021 01:44 9,8 C 8,9 C 7,3 C 94 % 1001,1 hPa 0,0 l/m 0 min 0 min 0 W/m 6,4 km/h (2 Bft) 97,87 %
17.05.2021 01:46 9,8 C 8,9 C 7,3 C 94 % 1001,1 hPa 0,0 l/m 0 min 0 min 0 W/m 9,7 km/h (2 Bft) 95,74 %
17.05.2021 01:48 9,8 C 8,9 C 7,3 C 94 % 1001,1 hPa 0,0 l/m 0 min 2 min 0 W/m 6,4 km/h (2 Bft) 97,87 %
17.05.2021 01:50 9,8 C 8,9 C 7,8 C 94 % 1001,2 hPa 0,0 l/m 0 min 0 min 0 W/m 6,4 km/h (2 Bft) 97,87 %
17.05.2021 01:52 9,7 C 8,9 C 7,3 C 94 % 1001,2 hPa 0,0 l/m 0 min 0 min 0 W/m 6,4 km/h (2 Bft) 97,83 %
17.05.2021 01:54 9,8 C 8,9 C 7,3 C 94 % 1001,2 hPa 0,0 l/m 0 min 0 min 0 W/m 6,4 km/h (2 Bft) 97,96 %
17.05.2021 01:56 9,7 C 8,9 C 7,8 C 94 % 1001,2 hPa 0,0 l/m 0 min 0 min 0 W/m 3,2 km/h (1 Bft) 100,00 %
17.05.2021 01:58 9,8 C 8,9 C 7,8 C 94 % 1001,2 hPa 0,0 l/m 0 min 0 min 0 W/m 6,4 km/h (2 Bft) 100,00 %
17.05.2021 02:00 9,7 C 8,9 C 7,8 C 94 % 1001,2 hPa 0,0 l/m 0 min 0 min 0 W/m 3,2 km/h (1 Bft) 100,00 %
17.05.2021 02:02 9,8 C 8,9 C 7,8 C 94 % 1001,2 hPa 0,0 l/m 0 min 0 min 0 W/m 6,4 km/h (2 Bft) 100,00 %
17.05.2021 02:04 9,8 C 8,9 C 7,8 C 94 % 1001,2 hPa 0,0 l/m 0 min 0 min 0 W/m 6,4 km/h (2 Bft) 100,00 %
17.05.2021 02:06 9,7 C 8,9 C 7,8 C 94 % 1001,1 hPa 0,0 l/m 0 min 0 min 0 W/m 3,2 km/h (1 Bft) 100,00 %
17.05.2021 02:08 9,8 C 8,9 C 7,8 C 94 % 1001,2 hPa 0,0 l/m 0 min 0 min 0 W/m 6,4 km/h (2 Bft) 100,00 %
17.05.2021 02:10 9,7 C 9,4 C 7,8 C 95 % 1001,3 hPa 0,0 l/m 0 min 2 min 0 W/m 9,7 km/h (2 Bft) 100,00 %
17.05.2021 02:12 9,8 C 9,4 C 7,8 C 95 % 1001,2 hPa 0,0 l/m 0 min 0 min 0 W/m 3,2 km/h (1 Bft) 100,00 %
17.05.2021 02:14 9,7 C 9,4 C 7,8 C 95 % 1001,2 hPa 0,0 l/m 0 min 0 min 0 W/m 6,4 km/h (2 Bft) 100,00 %
17.05.2021 02:16 9,8 C 9,4 C 7,8 C 95 % 1001,2 hPa 0,0 l/m 0 min 0 min 0 W/m 6,4 km/h (2 Bft) 97,83 %
17.05.2021 02:18 9,8 C 9,4 C 7,8 C 95 % 1001,2 hPa 0,0 l/m 0 min 0 min 0 W/m 6,4 km/h (2 Bft) 97,87 %
17.05.2021 02:20 9,8 C 9,4 C 7,8 C 95 % 1001,2 hPa 0,0 l/m 0 min 0 min 0 W/m 9,7 km/h (2 Bft) 97,87 %
17.05.2021 02:22 9,8 C 9,4 C 7,8 C 95 % 1001,2 hPa 0,0 l/m 0 min 0 min 0 W/m 9,7 km/h (2 Bft) 95,74 %
17.05.2021 02:24 9,8 C 9,4 C 7,8 C 95 % 1001,2 hPa 0,0 l/m 0 min 0 min 0 W/m 9,7 km/h (2 Bft) 95,74 %
17.05.2021 02:26 9,8 C 9,4 C 7,8 C 95 % 1001,2 hPa 0,0 l/m 0 min 2 min 0 W/m 19,3 km/h (3 Bft) 97,87 %
17.05.2021 02:28 9,8 C 9,4 C 7,8 C 95 % 1001,2 hPa 0,0 l/m 0 min 0 min 0 W/m 12,9 km/h (3 Bft) 97,83 %
17.05.2021 02:30 9,8 C 9,4 C 7,8 C 95 % 1001,3 hPa 0,0 l/m 0 min 0 min 0 W/m 12,9 km/h (3 Bft) 97,87 %
17.05.2021 02:32 9,9 C 9,4 C 7,8 C 95 % 1001,2 hPa 0,0 l/m 0 min 0 min 0 W/m 9,7 km/h (2 Bft) 97,87 %
17.05.2021 02:34 9,9 C 9,4 C 7,8 C 95 % 1001,3 hPa 0,0 l/m 0 min 0 min 0 W/m 6,4 km/h (2 Bft) 97,87 %
17.05.2021 02:36 9,9 C 9,4 C 7,8 C 95 % 1001,3 hPa 0,0 l/m 0 min 0 min 0 W/m 9,7 km/h (2 Bft) 97,87 %
17.05.2021 02:38 9,9 C 9,4 C 7,8 C 95 % 1001,3 hPa 0,0 l/m 0 min 0 min 0 W/m 12,9 km/h (3 Bft) 95,74 %
17.05.2021 02:40 9,9 C 9,4 C 7,8 C 95 % 1001,3 hPa 0,0 l/m 0 min 2 min 0 W/m 9,7 km/h (2 Bft) 97,83 %
17.05.2021 02:42 9,9 C 9,4 C 7,8 C 95 % 1001,3 hPa 0,0 l/m 0 min 0 min 0 W/m 9,7 km/h (2 Bft) 95,74 %
17.05.2021 02:44 9,9 C 9,4 C 7,8 C 95 % 1001,4 hPa 0,0 l/m 0 min 0 min 0 W/m 12,9 km/h (3 Bft) 95,74 %
17.05.2021 02:46 10,0 C 9,4 C 7,8 C 95 % 1001,3 hPa 0,0 l/m 0 min 0 min 0 W/m 6,4 km/h (2 Bft) 97,87 %
17.05.2021 02:48 10,0 C 9,4 C 7,8 C 95 % 1001,4 hPa 0,0 l/m 0 min 0 min 0 W/m 9,7 km/h (2 Bft) 97,87 %
17.05.2021 02:50 10,0 C 9,4 C 7,8 C 95 % 1001,3 hPa 0,0 l/m 0 min 0 min 0 W/m 12,9 km/h (3 Bft) 97,83 %
17.05.2021 02:52 10,0 C 9,4 C 7,8 C 95 % 1001,3 hPa 0,0 l/m 0 min 2 min 0 W/m 9,7 km/h (2 Bft) 97,87 %
17.05.2021 02:54 10,0 C 9,4 C 7,8 C 95 % 1001,2 hPa 0,0 l/m 0 min 2 min 0 W/m 6,4 km/h (2 Bft) 95,74 %
17.05.2021 02:56 10,0 C 9,4 C 7,8 C 95 % 1001,3 hPa 0,0 l/m 0 min 0 min 0 W/m 9,7 km/h (2 Bft) 97,87 %
17.05.2021 02:58 10,0 C 9,4 C 7,8 C 94 % 1001,2 hPa 0,0 l/m 0 min 2 min 0 W/m 16,1 km/h (3 Bft) 93,62 %
17.05.2021 03:00 10,0 C 9,4 C 7,8 C 94 % 1001,2 hPa 0,0 l/m 0 min 2 min 0 W/m 6,4 km/h (2 Bft) 97,87 %
17.05.2021 03:02 10,0 C 9,4 C 7,8 C 95 % 1001,3 hPa 0,0 l/m 0 min 0 min 0 W/m 12,9 km/h (3 Bft) 95,74 %
17.05.2021 03:04 10,0 C 9,4 C 7,8 C 95 % 1001,3 hPa 0,0 l/m 0 min 2 min 0 W/m 9,7 km/h (2 Bft) 97,83 %
17.05.2021 03:06 10,0 C 9,4 C 7,8 C 95 % 1001,2 hPa 0,0 l/m 0 min 0 min 0 W/m 9,7 km/h (2 Bft) 97,87 %
17.05.2021 03:08 10,0 C 9,4 C 7,8 C 95 % 1001,3 hPa 0,0 l/m 0 min 0 min 0 W/m 9,7 km/h (2 Bft) 97,87 %
17.05.2021 03:10 10,0 C 9,4 C 7,8 C 95 % 1001,3 hPa 0,0 l/m 0 min 0 min 0 W/m 12,9 km/h (3 Bft) 100,00 %
17.05.2021 03:12 10,0 C 9,4 C 7,8 C 95 % 1001,2 hPa 0,0 l/m 0 min 0 min 0 W/m 9,7 km/h (2 Bft) 100,00 %
17.05.2021 03:14 10,0 C 9,4 C 7,8 C 95 % 1001,2 hPa 0,0 l/m 0 min 0 min 0 W/m 12,9 km/h (3 Bft) 100,00 %
17.05.2021 03:16 10,0 C 9,4 C 7,8 C 95 % 1001,2 hPa 0,0 l/m 0 min 0 min 0 W/m 9,7 km/h (2 Bft) 97,87 %
17.05.2021 03:18 10,0 C 9,4 C 7,8 C 95 % 1001,2 hPa 0,0 l/m 0 min 0 min 0 W/m 12,9 km/h (3 Bft) 100,00 %
17.05.2021 03:20 10,0 C 9,4 C 7,8 C 95 % 1001,3 hPa 0,0 l/m 0 min 0 min 0 W/m 9,7 km/h (2 Bft) 100,00 %
17.05.2021 03:22 10,0 C 9,4 C 7,8 C 95 % 1001,3 hPa 0,0 l/m 0 min 0 min 0 W/m 12,9 km/h (3 Bft) 100,00 %
17.05.2021 03:24 10,0 C 9,4 C 7,8 C 95 % 1001,2 hPa 0,0 l/m 0 min 0 min 0 W/m 9,7 km/h (2 Bft) 100,00 %
17.05.2021 03:26 10,0 C 9,4 C 7,8 C 95 % 1001,2 hPa 0,0 l/m 0 min 0 min 0 W/m 6,4 km/h (2 Bft) 97,83 %
17.05.2021 03:28 10,0 C 9,4 C 7,8 C 95 % 1001,2 hPa 0,0 l/m 0 min 0 min 0 W/m 6,4 km/h (2 Bft) 97,87 %
17.05.2021 03:30 10,0 C 9,4 C 7,8 C 95 % 1001,3 hPa 0,0 l/m 0 min 0 min 0 W/m 12,9 km/h (3 Bft) 100,00 %
17.05.2021 03:32 10,0 C 9,4 C 7,8 C 95 % 1001,2 hPa 0,0 l/m 0 min 0 min 0 W/m 3,2 km/h (1 Bft) 97,87 %
17.05.2021 03:34 10,0 C 9,4 C 7,8 C 95 % 1001,2 hPa 0,0 l/m 0 min 0 min 0 W/m 6,4 km/h (2 Bft) 100,00 %
17.05.2021 03:36 10,0 C 9,4 C 7,8 C 95 % 1001,2 hPa 0,0 l/m 0 min 0 min 0 W/m 6,4 km/h (2 Bft) 93,62 %
17.05.2021 03:38 10,0 C 9,4 C 7,8 C 95 % 1001,2 hPa 0,0 l/m 0 min 0 min 0 W/m 6,4 km/h (2 Bft) 97,83 %
17.05.2021 03:40 10,0 C 9,4 C 7,8 C 95 % 1001,2 hPa 0,0 l/m 0 min 0 min 0 W/m 6,4 km/h (2 Bft) 97,87 %
17.05.2021 03:42 10,0 C 9,4 C 7,8 C 95 % 1001,3 hPa 0,0 l/m 0 min 0 min 0 W/m 12,9 km/h (3 Bft) 97,87 %
17.05.2021 03:44 10,0 C 9,4 C 7,8 C 95 % 1001,2 hPa 0,0 l/m 0 min 0 min 0 W/m 6,4 km/h (2 Bft) 97,87 %
17.05.2021 03:46 10,0 C 9,4 C 7,8 C 95 % 1001,2 hPa 0,0 l/m 0 min 0 min 0 W/m 9,7 km/h (2 Bft) 97,87 %
17.05.2021 03:48 10,0 C 9,4 C 7,8 C 95 % 1001,3 hPa 0,0 l/m 0 min 0 min 0 W/m 12,9 km/h (3 Bft) 97,87 %
17.05.2021 03:50 10,0 C 9,4 C 7,8 C 95 % 1001,2 hPa 0,0 l/m 0 min 0 min 0 W/m 6,4 km/h (2 Bft) 97,83 %
17.05.2021 03:52 10,0 C 9,4 C 7,8 C 95 % 1001,3 hPa 0,0 l/m 0 min 0 min 0 W/m 9,7 km/h (2 Bft) 97,87 %
17.05.2021 03:54 10,0 C 9,4 C 7,8 C 95 % 1001,3 hPa 0,0 l/m 0 min 0 min 0 W/m 9,7 km/h (2 Bft) 97,87 %
17.05.2021 03:56 10,0 C 9,4 C 7,8 C 95 % 1001,2 hPa 0,0 l/m 0 min 0 min 0 W/m 9,7 km/h (2 Bft) 97,87 %
17.05.2021 03:58 10,0 C 9,4 C 7,8 C 95 % 1001,2 hPa 0,0 l/m 0 min 0 min 0 W/m 6,4 km/h (2 Bft) 97,87 %
17.05.2021 04:00 10,0 C 9,4 C 7,8 C 95 % 1001,2 hPa 0,0 l/m 0 min 0 min 0 W/m 6,4 km/h (2 Bft) 95,74 %
17.05.2021 04:02 10,0 C 9,4 C 7,8 C 95 % 1001,3 hPa 0,0 l/m 0 min 0 min 0 W/m 3,2 km/h (1 Bft) 100,00 %
17.05.2021 04:07 9,9 C 9,4 C 7,8 C 95 % 1001,2 hPa 0,0 l/m 0 min 0 min 0 W/m 6,4 km/h (2 Bft) 98,33 %
17.05.2021 04:08 9,9 C 9,4 C 7,8 C 95 % 1001,2 hPa 0,0 l/m 0 min 0 min 0 W/m 3,2 km/h (1 Bft) 91,67 %
17.05.2021 04:10 9,9 C 9,4 C 7,8 C 95 % 1001,2 hPa 0,0 l/m 0 min 0 min 0 W/m 12,9 km/h (3 Bft) 97,87 %
17.05.2021 04:12 9,9 C 9,4 C 7,8 C 95 % 1001,2 hPa 0,0 l/m 0 min 0 min 0 W/m 9,7 km/h (2 Bft) 97,87 %
17.05.2021 04:14 9,9 C 9,4 C 7,8 C 95 % 1001,2 hPa 0,0 l/m 0 min 0 min 0 W/m 6,4 km/h (2 Bft) 97,83 %
17.05.2021 04:16 9,9 C 9,4 C 7,8 C 95 % 1001,2 hPa 0,0 l/m 0 min 0 min 0 W/m 6,4 km/h (2 Bft) 87,23 %
17.05.2021 04:18 9,9 C 9,4 C 7,8 C 95 % 1001,3 hPa 0,0 l/m 0 min 0 min 0 W/m 6,4 km/h (2 Bft) 63,64 %
17.05.2021 04:20 9,9 C 9,4 C 7,8 C 95 % 1001,2 hPa 0,0 l/m 0 min 0 min 0 W/m 6,4 km/h (2 Bft) 97,87 %
17.05.2021 04:22 9,9 C 9,4 C 7,8 C 95 % 1001,3 hPa 0,0 l/m 0 min 0 min 0 W/m 6,4 km/h (2 Bft) 100,00 %
17.05.2021 04:24 9,9 C 9,4 C 7,8 C 95 % 1001,3 hPa 0,0 l/m 0 min 0 min 0 W/m 6,4 km/h (2 Bft) 100,00 %
17.05.2021 04:26 9,9 C 9,4 C 8,4 C 95 % 1001,3 hPa 0,0 l/m 0 min 0 min 0 W/m 6,4 km/h (2 Bft) 97,83 %
17.05.2021 04:28 9,9 C 9,4 C 8,4 C 95 % 1001,3 hPa 0,0 l/m 0 min 0 min 0 W/m 6,4 km/h (2 Bft) 100,00 %
17.05.2021 04:30 9,9 C 9,4 C 8,4 C 95 % 1001,3 hPa 0,0 l/m 0 min 0 min 0 W/m 3,2 km/h (1 Bft) 100,00 %
17.05.2021 04:32 9,9 C 9,4 C 8,4 C 95 % 1001,4 hPa 0,0 l/m 0 min 0 min 0 W/m 9,7 km/h (2 Bft) 97,87 %
17.05.2021 04:34 9,9 C 9,4 C 8,4 C 95 % 1001,4 hPa 0,0 l/m 0 min 0 min 0 W/m 19,3 km/h (3 Bft) 100,00 %
17.05.2021 04:36 9,9 C 9,4 C 8,4 C 95 % 1001,4 hPa 0,0 l/m 0 min 0 min 0 W/m 6,4 km/h (2 Bft) 100,00 %
17.05.2021 04:38 9,9 C 9,4 C 8,4 C 95 % 1001,4 hPa 0,0 l/m 0 min 0 min 0 W/m 16,1 km/h (3 Bft) 97,83 %
17.05.2021 04:40 9,9 C 9,4 C 8,4 C 95 % 1001,4 hPa 0,0 l/m 0 min 0 min 0 W/m 6,4 km/h (2 Bft) 100,00 %
17.05.2021 04:42 9,9 C 9,4 C 8,4 C 95 % 1001,4 hPa 0,0 l/m 0 min 0 min 0 W/m 9,7 km/h (2 Bft) 100,00 %
17.05.2021 04:44 9,9 C 9,4 C 8,4 C 95 % 1001,4 hPa 0,0 l/m 0 min 0 min 0 W/m 12,9 km/h (3 Bft) 97,87 %
17.05.2021 04:46 9,9 C 9,4 C 8,4 C 95 % 1001,4 hPa 0,0 l/m 0 min 0 min 0 W/m 9,7 km/h (2 Bft) 100,00 %
17.05.2021 04:48 9,9 C 9,4 C 8,4 C 95 % 1001,4 hPa 0,0 l/m 0 min 0 min 0 W/m 9,7 km/h (2 Bft) 100,00 %
17.05.2021 04:50 9,9 C 9,4 C 8,4 C 95 % 1001,4 hPa 0,0 l/m 0 min 0 min 0 W/m 9,7 km/h (2 Bft) 100,00 %
17.05.2021 04:52 9,9 C 9,4 C 8,4 C 95 % 1001,4 hPa 0,0 l/m 0 min 0 min 0 W/m 6,4 km/h (2 Bft) 100,00 %
17.05.2021 04:54 9,9 C 9,4 C 7,8 C 95 % 1001,3 hPa 0,0 l/m 0 min 0 min 0 W/m 6,4 km/h (2 Bft) 100,00 %
17.05.2021 04:56 9,9 C 9,4 C 7,8 C 95 % 1001,3 hPa 0,0 l/m 0 min 0 min 0 W/m 9,7 km/h (2 Bft) 100,00 %
17.05.2021 04:58 9,9 C 9,4 C 7,8 C 95 % 1001,4 hPa 0,0 l/m 0 min 0 min 0 W/m 6,4 km/h (2 Bft) 97,87 %
17.05.2021 05:00 9,9 C 9,4 C 7,8 C 94 % 1001,4 hPa 0,0 l/m 0 min 0 min 0 W/m 6,4 km/h (2 Bft) 100,00 %
17.05.2021 05:02 9,9 C 9,4 C 7,8 C 94 % 1001,4 hPa 0,0 l/m 0 min 0 min 0 W/m 9,7 km/h (2 Bft) 97,83 %
17.05.2021 05:04 9,9 C 9,4 C 7,8 C 94 % 1001,4 hPa 0,0 l/m 0 min 0 min 0 W/m 6,4 km/h (2 Bft) 100,00 %
17.05.2021 05:06 9,9 C 9,4 C 7,8 C 94 % 1001,4 hPa 0,0 l/m 0 min 0 min 0 W/m 9,7 km/h (2 Bft) 100,00 %
17.05.2021 05:08 9,9 C 9,4 C 7,8 C 94 % 1001,4 hPa 0,0 l/m 0 min 0 min 0 W/m 6,4 km/h (2 Bft) 97,87 %
17.05.2021 05:10 9,9 C 9,4 C 7,8 C 94 % 1001,4 hPa 0,0 l/m 0 min 0 min 0 W/m 3,2 km/h (1 Bft) 97,87 %
17.05.2021 05:12 9,9 C 9,4 C 7,8 C 94 % 1001,4 hPa 0,0 l/m 0 min 0 min 0 W/m 12,9 km/h (3 Bft) 97,87 %
17.05.2021 05:14 9,8 C 9,4 C 7,8 C 94 % 1001,5 hPa 0,0 l/m 0 min 0 min 0 W/m 6,4 km/h (2 Bft) 95,65 %
17.05.2021 05:16 9,9 C 9,4 C 7,8 C 94 % 1001,4 hPa 0,0 l/m 0 min 0 min 0 W/m 6,4 km/h (2 Bft) 97,87 %
17.05.2021 05:18 9,8 C 9,4 C 8,4 C 94 % 1001,4 hPa 0,0 l/m 0 min 0 min 0 W/m 9,7 km/h (2 Bft) 97,87 %
17.05.2021 05:21 9,8 C 9,4 C 8,4 C 94 % 1001,4 hPa 0,0 l/m 0 min 0 min 0 W/m 6,4 km/h (2 Bft) 96,34 %
17.05.2021 05:22 9,8 C 9,4 C 8,4 C 94 % 1001,4 hPa 0,0 l/m 0 min 0 min 0 W/m 12,9 km/h (3 Bft) 91,67 %
17.05.2021 05:24 9,8 C 9,4 C 8,4 C 94 % 1001,4 hPa 0,0 l/m 0 min 0 min 0 W/m 9,7 km/h (2 Bft) 95,74 %
17.05.2021 05:26 9,8 C 9,4 C 8,4 C 94 % 1001,5 hPa 0,0 l/m 0 min 0 min 0 W/m 6,4 km/h (2 Bft) 93,48 %
17.05.2021 05:28 9,8 C 9,4 C 8,4 C 94 % 1001,5 hPa 0,0 l/m 0 min 0 min 0 W/m 6,4 km/h (2 Bft) 95,74 %
17.05.2021 05:30 9,9 C 9,4 C 8,4 C 94 % 1001,5 hPa 0,0 l/m 0 min 0 min 0 W/m 6,4 km/h (2 Bft) 95,74 %
17.05.2021 05:32 9,8 C 9,4 C 8,4 C 94 % 1001,5 hPa 0,0 l/m 0 min 0 min 0 W/m 6,4 km/h (2 Bft) 93,62 %
17.05.2021 05:34 9,8 C 9,4 C 8,4 C 94 % 1001,5 hPa 0,0 l/m 0 min 0 min 0 W/m 6,4 km/h (2 Bft) 93,62 %
17.05.2021 05:36 9,9 C 9,4 C 8,4 C 94 % 1001,5 hPa 0,0 l/m 0 min 0 min 0 W/m 6,4 km/h (2 Bft) 93,62 %
17.05.2021 05:38 9,9 C 9,4 C 8,4 C 94 % 1001,5 hPa 0,0 l/m 0 min 0 min 0 W/m 6,4 km/h (2 Bft) 95,65 %
17.05.2021 05:40 9,9 C 9,4 C 8,4 C 94 % 1001,4 hPa 0,0 l/m 0 min 0 min 0 W/m 3,2 km/h (1 Bft) 95,74 %
17.05.2021 05:42 9,9 C 9,4 C 8,4 C 94 % 1001,5 hPa 0,0 l/m 0 min 0 min 0 W/m 6,4 km/h (2 Bft) 95,74 %
17.05.2021 05:44 9,9 C 9,4 C 8,4 C 94 % 1001,4 hPa 0,0 l/m 0 min 0 min 0 W/m 16,1 km/h (3 Bft) 95,74 %
17.05.2021 05:46 9,9 C 9,4 C 8,4 C 94 % 1001,5 hPa 0,0 l/m 0 min 0 min 1 W/m 3,2 km/h (1 Bft) 95,74 %
17.05.2021 05:48 9,9 C 9,4 C 8,4 C 94 % 1001,4 hPa 0,0 l/m 0 min 0 min 7 W/m 6,4 km/h (2 Bft) 95,74 %
17.05.2021 05:50 9,9 C 9,4 C 8,4 C 94 % 1001,5 hPa 0,0 l/m 0 min 0 min 8 W/m 9,7 km/h (2 Bft) 95,65 %
17.05.2021 05:52 9,9 C 9,4 C 8,4 C 94 % 1001,5 hPa 0,0 l/m 0 min 0 min 9 W/m 6,4 km/h (2 Bft) 95,74 %
17.05.2021 05:54 9,9 C 9,4 C 8,4 C 94 % 1001,4 hPa 0,0 l/m 0 min 0 min 11 W/m 6,4 km/h (2 Bft) 91,49 %
17.05.2021 05:56 9,9 C 9,4 C 8,4 C 94 % 1001,5 hPa 0,0 l/m 0 min 0 min 11 W/m 6,4 km/h (2 Bft) 95,74 %
17.05.2021 05:58 9,9 C 9,4 C 8,4 C 94 % 1001,5 hPa 0,0 l/m 0 min 0 min 12 W/m 9,7 km/h (2 Bft) 93,62 %
17.05.2021 06:00 9,9 C 9,4 C 8,4 C 94 % 1001,5 hPa 0,0 l/m 0 min 0 min 13 W/m 3,2 km/h (1 Bft) 95,74 %
17.05.2021 06:02 9,9 C 9,4 C 8,4 C 94 % 1001,5 hPa 0,0 l/m 0 min 0 min 14 W/m 6,4 km/h (2 Bft) 95,74 %
17.05.2021 06:04 9,9 C 9,4 C 8,4 C 94 % 1001,5 hPa 0,0 l/m 0 min 0 min 14 W/m 6,4 km/h (2 Bft) 51,22 %
17.05.2021 06:06 9,9 C 9,4 C 8,4 C 94 % 1001,5 hPa 0,0 l/m 0 min 0 min 16 W/m 9,7 km/h (2 Bft) 93,62 %
17.05.2021 06:08 9,9 C 9,4 C 8,4 C 94 % 1001,5 hPa 0,0 l/m 0 min 0 min 17 W/m 12,9 km/h (3 Bft) 93,62 %
17.05.2021 06:10 9,9 C 9,4 C 8,4 C 94 % 1001,6 hPa 0,0 l/m 0 min 0 min 19 W/m 6,4 km/h (2 Bft) 93,62 %
17.05.2021 06:12 9,9 C 9,4 C 8,4 C 94 % 1001,6 hPa 0,0 l/m 0 min 0 min 21 W/m 6,4 km/h (2 Bft) 89,36 %
17.05.2021 06:14 9,9 C 9,4 C 8,4 C 94 % 1001,6 hPa 0,0 l/m 0 min 0 min 21 W/m 6,4 km/h (2 Bft) 95,65 %
17.05.2021 06:16 9,9 C 9,4 C 8,4 C 95 % 1001,6 hPa 0,0 l/m 0 min 0 min 21 W/m 6,4 km/h (2 Bft) 93,62 %
17.05.2021 06:18 9,9 C 9,4 C 8,4 C 95 % 1001,7 hPa 0,0 l/m 0 min 0 min 21 W/m 6,4 km/h (2 Bft) 93,75 %
17.05.2021 06:20 9,9 C 9,4 C 8,4 C 95 % 1001,7 hPa 0,0 l/m 0 min 0 min 22 W/m 6,4 km/h (2 Bft) 95,74 %
17.05.2021 06:22 9,9 C 9,4 C 8,4 C 95 % 1001,7 hPa 0,0 l/m 0 min 0 min 25 W/m 6,4 km/h (2 Bft) 95,74 %
17.05.2021 06:24 10,0 C 9,4 C 8,4 C 95 % 1001,7 hPa 0,2 l/m 0 min 0 min 26 W/m 9,7 km/h (2 Bft) 95,74 %
17.05.2021 06:26 10,0 C 9,4 C 8,4 C 95 % 1001,7 hPa 0,0 l/m 0 min 0 min 28 W/m 3,2 km/h (1 Bft) 93,48 %
17.05.2021 06:28 10,0 C 9,4 C 8,4 C 95 % 1001,7 hPa 0,0 l/m 0 min 0 min 32 W/m 6,4 km/h (2 Bft) 95,74 %
17.05.2021 06:30 10,0 C 9,4 C 8,4 C 95 % 1001,6 hPa 0,0 l/m 0 min 0 min 36 W/m 12,9 km/h (3 Bft) 95,74 %
17.05.2021 06:32 10,0 C 10,0 C 8,4 C 95 % 1001,7 hPa 0,0 l/m 0 min 0 min 40 W/m 6,4 km/h (2 Bft) 95,74 %
17.05.2021 06:34 10,0 C 10,0 C 8,4 C 95 % 1001,7 hPa 0,0 l/m 0 min 0 min 46 W/m 6,4 km/h (2 Bft) 95,83 %
17.05.2021 06:36 10,0 C 10,0 C 8,4 C 95 % 1001,7 hPa 0,0 l/m 0 min 0 min 49 W/m 12,9 km/h (3 Bft) 95,65 %
17.05.2021 06:38 10,0 C 10,0 C 8,4 C 95 % 1001,7 hPa 0,0 l/m 0 min 0 min 50 W/m 6,4 km/h (2 Bft) 95,74 %
17.05.2021 06:40 10,1 C 10,0 C 8,9 C 95 % 1001,7 hPa 0,0 l/m 0 min 0 min 53 W/m 9,7 km/h (2 Bft) 95,74 %
17.05.2021 06:42 10,1 C 10,0 C 8,9 C 95 % 1001,7 hPa 0,0 l/m 0 min 0 min 53 W/m 9,7 km/h (2 Bft) 95,74 %
17.05.2021 06:44 10,1 C 10,0 C 8,9 C 95 % 1001,7 hPa 0,0 l/m 0 min 0 min 53 W/m 12,9 km/h (3 Bft) 93,62 %
17.05.2021 06:46 10,1 C 10,0 C 8,9 C 95 % 1001,8 hPa 0,0 l/m 0 min 0 min 52 W/m 6,4 km/h (2 Bft) 93,62 %
17.05.2021 06:48 10,2 C 10,0 C 8,9 C 95 % 1001,8 hPa 0,0 l/m 0 min 0 min 50 W/m 6,4 km/h (2 Bft) 100,00 %
17.05.2021 06:50 10,3 C 10,0 C 8,9 C 95 % 1001,8 hPa 0,0 l/m 0 min 0 min 53 W/m 19,3 km/h (3 Bft) 100,00 %
17.05.2021 06:52 10,3 C 10,0 C 8,9 C 95 % 1001,8 hPa 0,0 l/m 0 min 0 min 54 W/m 12,9 km/h (3 Bft) 100,00 %
17.05.2021 06:54 10,3 C 10,0 C 8,9 C 95 % 1001,8 hPa 0,0 l/m 0 min 0 min 52 W/m 16,1 km/h (3 Bft) 97,87 %
17.05.2021 06:56 10,3 C 10,0 C 8,9 C 95 % 1001,8 hPa 0,0 l/m 0 min 0 min 49 W/m 9,7 km/h (2 Bft) 100,00 %
17.05.2021 06:58 10,4 C 10,0 C 8,9 C 95 % 1001,8 hPa 0,0 l/m 0 min 0 min 57 W/m 19,3 km/h (3 Bft) 100,00 %
17.05.2021 07:00 10,4 C 10,6 C 8,9 C 94 % 1001,8 hPa 0,0 l/m 0 min 0 min 64 W/m 12,9 km/h (3 Bft) 100,00 %
17.05.2021 07:02 10,4 C 10,6 C 8,9 C 94 % 1001,8 hPa 0,0 l/m 0 min 0 min 63 W/m 16,1 km/h (3 Bft) 100,00 %
17.05.2021 07:04 10,5 C 10,6 C 8,9 C 94 % 1001,8 hPa 0,0 l/m 0 min 0 min 61 W/m 16,1 km/h (3 Bft) 97,87 %
17.05.2021 07:06 10,5 C 10,6 C 8,9 C 94 % 1001,8 hPa 0,0 l/m 0 min 0 min 62 W/m 19,3 km/h (3 Bft) 100,00 %
17.05.2021 07:08 10,5 C 10,6 C 8,9 C 94 % 1001,9 hPa 0,0 l/m 0 min 0 min 64 W/m 12,9 km/h (3 Bft) 97,87 %
17.05.2021 07:10 10,5 C 10,6 C 8,9 C 94 % 1001,8 hPa 0,0 l/m 0 min 0 min 64 W/m 12,9 km/h (3 Bft) 100,00 %
17.05.2021 07:12 10,6 C 10,6 C 9,5 C 94 % 1001,8 hPa 0,0 l/m 0 min 0 min 62 W/m 12,9 km/h (3 Bft) 100,00 %
17.05.2021 07:14 10,6 C 10,6 C 9,5 C 94 % 1001,9 hPa 0,0 l/m 0 min 0 min 63 W/m 12,9 km/h (3 Bft) 97,87 %
17.05.2021 07:16 10,6 C 10,6 C 9,5 C 93 % 1001,9 hPa 0,0 l/m 0 min 0 min 67 W/m 16,1 km/h (3 Bft) 100,00 %
17.05.2021 07:18 10,7 C 10,6 C 9,5 C 94 % 1001,8 hPa 0,0 l/m 0 min 0 min 67 W/m 16,1 km/h (3 Bft) 100,00 %
17.05.2021 07:20 10,8 C 10,6 C 9,5 C 93 % 1001,9 hPa 0,0 l/m 0 min 0 min 68 W/m 19,3 km/h (3 Bft) 100,00 %
17.05.2021 07:22 10,8 C 10,6 C 9,5 C 93 % 1001,9 hPa 0,0 l/m 0 min 0 min 73 W/m 22,5 km/h (4 Bft) 100,00 %
17.05.2021 07:24 10,8 C 10,6 C 9,5 C 93 % 1001,9 hPa 0,0 l/m 0 min 0 min 89 W/m 19,3 km/h (3 Bft) 97,83 %
17.05.2021 07:26 10,8 C 10,6 C 9,5 C 93 % 1001,9 hPa 0,0 l/m 0 min 0 min 107 W/m 12,9 km/h (3 Bft) 100,00 %
17.05.2021 07:28 10,9 C 11,1 C 9,5 C 93 % 1001,9 hPa 0,0 l/m 0 min 0 min 118 W/m 12,9 km/h (3 Bft) 100,00 %
17.05.2021 07:30 10,9 C 11,1 C 9,5 C 93 % 1001,9 hPa 0,0 l/m 2 min 0 min 127 W/m 12,9 km/h (3 Bft) 100,00 %
17.05.2021 07:32 11,0 C 11,1 C 9,5 C 93 % 1001,9 hPa 0,0 l/m 0 min 0 min 122 W/m 22,5 km/h (4 Bft) 100,00 %
17.05.2021 07:34 11,0 C 11,1 C 9,5 C 92 % 1001,9 hPa 0,0 l/m 0 min 0 min 123 W/m 25,7 km/h (4 Bft) 100,00 %
17.05.2021 07:36 11,0 C 11,1 C 9,5 C 92 % 1001,9 hPa 0,0 l/m 2 min 0 min 144 W/m 16,1 km/h (3 Bft) 100,00 %
17.05.2021 07:38 11,1 C 11,1 C 10,0 C 92 % 1001,9 hPa 0,0 l/m 2 min 0 min 150 W/m 16,1 km/h (3 Bft) 100,00 %
17.05.2021 07:40 11,1 C 11,1 C 10,0 C 92 % 1001,9 hPa 0,0 l/m 2 min 0 min 148 W/m 19,3 km/h (3 Bft) 97,87 %
17.05.2021 07:42 11,1 C 11,1 C 10,0 C 92 % 1001,9 hPa 0,0 l/m 2 min 0 min 147 W/m 22,5 km/h (4 Bft) 100,00 %
17.05.2021 07:44 11,2 C 11,1 C 10,0 C 91 % 1001,9 hPa 0,0 l/m 0 min 0 min 134 W/m 16,1 km/h (3 Bft) 97,87 %
17.05.2021 07:46 11,3 C 11,1 C 10,0 C 91 % 1001,9 hPa 0,0 l/m 0 min 0 min 121 W/m 16,1 km/h (3 Bft) 100,00 %
17.05.2021 07:48 11,3 C 11,1 C 10,0 C 91 % 1001,9 hPa 0,0 l/m 0 min 0 min 107 W/m 19,3 km/h (3 Bft) 100,00 %
17.05.2021 07:50 11,3 C 11,1 C 10,0 C 91 % 1001,9 hPa 0,0 l/m 0 min 0 min 102 W/m 9,7 km/h (2 Bft) 100,00 %
17.05.2021 07:52 11,4 C 11,1 C 10,0 C 91 % 1001,9 hPa 0,0 l/m 0 min 0 min 98 W/m 19,3 km/h (3 Bft) 100,00 %
17.05.2021 07:54 11,4 C 11,1 C 10,0 C 91 % 1001,9 hPa 0,0 l/m 0 min 0 min 94 W/m 12,9 km/h (3 Bft) 100,00 %
17.05.2021 07:56 11,4 C 11,1 C 10,0 C 91 % 1001,9 hPa 0,0 l/m 0 min 0 min 86 W/m 16,1 km/h (3 Bft) 100,00 %
17.05.2021 07:58 11,4 C 11,1 C 10,0 C 91 % 1002,0 hPa 0,0 l/m 0 min 0 min 83 W/m 22,5 km/h (4 Bft) 100,00 %
17.05.2021 08:02 11,4 C 11,1 C 10,0 C 90 % 1002,0 hPa 0,0 l/m 0 min 0 min 79 W/m 19,3 km/h (3 Bft) 100,00 %
17.05.2021 08:04 11,4 C 11,1 C 9,5 C 90 % 1001,9 hPa 0,0 l/m 0 min 0 min 86 W/m 16,1 km/h (3 Bft) 89,36 %
17.05.2021 08:06 11,4 C 11,1 C 10,0 C 90 % 1002,0 hPa 0,0 l/m 0 min 0 min 98 W/m 16,1 km/h (3 Bft) 95,74 %
17.05.2021 08:08 11,4 C 11,1 C 10,0 C 90 % 1002,0 hPa 0,0 l/m 0 min 0 min 112 W/m 16,1 km/h (3 Bft) 95,74 %
17.05.2021 08:10 11,5 C 11,1 C 10,0 C 90 % 1002,0 hPa 0,0 l/m 0 min 0 min 113 W/m 6,4 km/h (2 Bft) 97,87 %
17.05.2021 08:12 11,5 C 11,7 C 10,0 C 90 % 1002,0 hPa 0,0 l/m 0 min 0 min 110 W/m 12,9 km/h (3 Bft) 93,48 %
17.05.2021 08:14 11,5 C 11,7 C 10,0 C 90 % 1002,0 hPa 0,0 l/m 0 min 0 min 101 W/m 12,9 km/h (3 Bft) 65,96 %
17.05.2021 08:16 11,5 C 11,7 C 10,0 C 90 % 1002,1 hPa 0,0 l/m 0 min 0 min 96 W/m 19,3 km/h (3 Bft) 72,34 %
17.05.2021 08:18 11,5 C 11,7 C 10,0 C 89 % 1002,1 hPa 0,0 l/m 0 min 0 min 86 W/m 12,9 km/h (3 Bft) 93,62 %
17.05.2021 08:20 11,6 C 11,7 C 10,0 C 90 % 1002,1 hPa 0,0 l/m 0 min 0 min 86 W/m 12,9 km/h (3 Bft) 80,85 %
17.05.2021 08:22 11,6 C 11,7 C 10,0 C 89 % 1002,1 hPa 0,0 l/m 0 min 0 min 91 W/m 16,1 km/h (3 Bft) 85,11 %
17.05.2021 08:24 11,6 C 11,7 C 10,0 C 89 % 1002,1 hPa 0,0 l/m 0 min 0 min 107 W/m 9,7 km/h (2 Bft) 78,26 %
17.05.2021 08:26 11,6 C 11,7 C 10,0 C 89 % 1002,1 hPa 0,0 l/m 0 min 0 min 121 W/m 19,3 km/h (3 Bft) 91,49 %
17.05.2021 08:28 11,6 C 11,7 C 10,0 C 89 % 1002,2 hPa 0,0 l/m 0 min 0 min 137 W/m 12,9 km/h (3 Bft) 85,11 %
17.05.2021 08:30 11,7 C 11,7 C 10,0 C 89 % 1002,1 hPa 0,0 l/m 0 min 0 min 157 W/m 12,9 km/h (3 Bft) 82,98 %
17.05.2021 08:32 11,7 C 11,7 C 10,6 C 89 % 1002,2 hPa 0,0 l/m 0 min 0 min 152 W/m 19,3 km/h (3 Bft) 95,74 %
17.05.2021 08:34 11,8 C 11,7 C 10,6 C 89 % 1002,2 hPa 0,0 l/m 0 min 0 min 129 W/m 22,5 km/h (4 Bft) 97,87 %
17.05.2021 08:36 11,8 C 11,7 C 10,6 C 89 % 1002,2 hPa 0,0 l/m 0 min 0 min 115 W/m 19,3 km/h (3 Bft) 95,65 %
17.05.2021 08:38 11,8 C 11,7 C 10,6 C 89 % 1002,2 hPa 0,0 l/m 0 min 0 min 119 W/m 16,1 km/h (3 Bft) 97,87 %
17.05.2021 08:40 11,8 C 11,7 C 10,6 C 89 % 1002,1 hPa 0,0 l/m 0 min 0 min 108 W/m 29,0 km/h (5 Bft) 95,74 %
17.05.2021 08:42 11,9 C 11,7 C 10,0 C 88 % 1002,1 hPa 0,0 l/m 0 min 0 min 101 W/m 16,1 km/h (3 Bft) 97,87 %
17.05.2021 08:44 11,9 C 11,7 C 10,0 C 88 % 1002,2 hPa 0,0 l/m 0 min 0 min 106 W/m 19,3 km/h (3 Bft) 97,87 %
17.05.2021 08:46 11,9 C 11,7 C 10,0 C 88 % 1002,2 hPa 0,0 l/m 0 min 0 min 102 W/m 16,1 km/h (3 Bft) 95,65 %
17.05.2021 08:48 11,9 C 11,7 C 10,0 C 88 % 1002,3 hPa 0,0 l/m 0 min 0 min 91 W/m 16,1 km/h (3 Bft) 97,87 %
17.05.2021 08:50 11,9 C 11,7 C 10,0 C 88 % 1002,3 hPa 0,0 l/m 0 min 0 min 86 W/m 16,1 km/h (3 Bft) 93,62 %
17.05.2021 08:52 11,9 C 11,7 C 10,0 C 87 % 1002,3 hPa 0,0 l/m 0 min 0 min 82 W/m 12,9 km/h (3 Bft) 97,87 %
17.05.2021 08:54 11,9 C 11,7 C 10,0 C 87 % 1002,3 hPa 0,0 l/m 0 min 0 min 104 W/m 25,7 km/h (4 Bft) 95,74 %
17.05.2021 08:56 11,9 C 11,7 C 10,0 C 87 % 1002,3 hPa 0,0 l/m 0 min 0 min 117 W/m 19,3 km/h (3 Bft) 97,87 %
17.05.2021 08:58 11,9 C 11,7 C 10,0 C 87 % 1002,3 hPa 0,0 l/m 0 min 0 min 105 W/m 25,7 km/h (4 Bft) 97,83 %
17.05.2021 09:00 11,9 C 11,7 C 10,0 C 87 % 1002,3 hPa 0,0 l/m 0 min 0 min 105 W/m 19,3 km/h (3 Bft) 95,74 %
17.05.2021 09:02 11,9 C 11,7 C 10,0 C 87 % 1002,3 hPa 0,0 l/m 0 min 0 min 119 W/m 22,5 km/h (4 Bft) 95,83 %
17.05.2021 09:04 12,0 C 11,7 C 10,0 C 86 % 1002,3 hPa 0,0 l/m 0 min 0 min 124 W/m 19,3 km/h (3 Bft) 97,87 %
17.05.2021 09:06 12,0 C 11,7 C 10,0 C 86 % 1002,4 hPa 0,0 l/m 0 min 0 min 135 W/m 22,5 km/h (4 Bft) 93,62 %
17.05.2021 09:08 12,0 C 11,7 C 10,6 C 86 % 1002,4 hPa 0,0 l/m 0 min 0 min 150 W/m 25,7 km/h (4 Bft) 97,87 %
17.05.2021 09:10 12,0 C 11,7 C 10,6 C 86 % 1002,4 hPa 0,0 l/m 0 min 0 min 131 W/m 29,0 km/h (5 Bft) 97,83 %
17.05.2021 09:12 12,0 C 11,7 C 10,6 C 85 % 1002,4 hPa 0,0 l/m 0 min 0 min 105 W/m 12,9 km/h (3 Bft) 97,87 %
17.05.2021 09:14 12,1 C 12,2 C 10,6 C 85 % 1002,4 hPa 0,0 l/m 0 min 0 min 112 W/m 19,3 km/h (3 Bft) 97,87 %
17.05.2021 09:16 12,1 C 11,7 C 10,6 C 86 % 1002,5 hPa 0,0 l/m 0 min 0 min 100 W/m 25,7 km/h (4 Bft) 95,74 %
17.05.2021 09:18 12,1 C 11,7 C 10,6 C 85 % 1002,4 hPa 0,0 l/m 0 min 0 min 122 W/m 12,9 km/h (3 Bft) 97,87 %
17.05.2021 09:20 12,1 C 12,2 C 10,6 C 85 % 1002,5 hPa 0,0 l/m 0 min 0 min 135 W/m 19,3 km/h (3 Bft) 97,87 %
17.05.2021 09:22 12,1 C 12,2 C 10,6 C 85 % 1002,4 hPa 0,0 l/m 0 min 0 min 158 W/m 16,1 km/h (3 Bft) 97,83 %
17.05.2021 09:24 12,1 C 12,2 C 10,6 C 86 % 1002,5 hPa 0,0 l/m 0 min 0 min 216 W/m 16,1 km/h (3 Bft) 97,87 %
17.05.2021 09:26 12,2 C 12,2 C 10,6 C 85 % 1002,5 hPa 0,0 l/m 0 min 0 min 207 W/m 22,5 km/h (4 Bft) 97,87 %
17.05.2021 09:28 12,3 C 12,8 C 10,6 C 85 % 1002,5 hPa 0,0 l/m 2 min 0 min 268 W/m 19,3 km/h (3 Bft) 95,74 %
17.05.2021 09:30 12,3 C 12,8 C 11,1 C 85 % 1002,4 hPa 0,0 l/m 0 min 0 min 231 W/m 19,3 km/h (3 Bft) 95,74 %
17.05.2021 09:32 12,4 C 12,8 C 11,1 C 85 % 1002,5 hPa 0,0 l/m 0 min 0 min 259 W/m 12,9 km/h (3 Bft) 97,87 %
17.05.2021 09:34 12,4 C 12,8 C 11,1 C 85 % 1002,4 hPa 0,0 l/m 2 min 0 min 299 W/m 19,3 km/h (3 Bft) 97,83 %
17.05.2021 09:36 12,5 C 12,8 C 11,1 C 84 % 1002,4 hPa 0,0 l/m 0 min 0 min 174 W/m 19,3 km/h (3 Bft) 95,74 %
17.05.2021 09:38 12,5 C 12,8 C 11,1 C 84 % 1002,5 hPa 0,0 l/m 0 min 0 min 139 W/m 29,0 km/h (5 Bft) 97,92 %
17.05.2021 09:40 12,5 C 12,8 C 11,1 C 84 % 1002,4 hPa 0,0 l/m 0 min 0 min 170 W/m 19,3 km/h (3 Bft) 94,29 %
17.05.2021 09:42 12,5 C 12,8 C 11,1 C 84 % 1002,4 hPa 0,0 l/m 0 min 0 min 200 W/m 25,7 km/h (4 Bft) 97,87 %
17.05.2021 09:44 12,6 C 12,8 C 11,1 C 84 % 1002,4 hPa 0,0 l/m 0 min 0 min 197 W/m 25,7 km/h (4 Bft) 95,74 %
17.05.2021 09:46 12,6 C 12,8 C 11,1 C 84 % 1002,3 hPa 0,0 l/m 0 min 0 min 166 W/m 16,1 km/h (3 Bft) 100,00 %
17.05.2021 09:48 12,6 C 12,8 C 11,1 C 84 % 1002,3 hPa 0,0 l/m 0 min 0 min 143 W/m 19,3 km/h (3 Bft) 100,00 %
17.05.2021 09:50 12,6 C 12,8 C 11,1 C 83 % 1002,4 hPa 0,0 l/m 0 min 0 min 173 W/m 22,5 km/h (4 Bft) 100,00 %
17.05.2021 09:52 12,6 C 12,8 C 11,1 C 83 % 1002,3 hPa 0,0 l/m 0 min 0 min 205 W/m 16,1 km/h (3 Bft) 100,00 %
17.05.2021 09:54 12,7 C 12,8 C 11,1 C 83 % 1002,4 hPa 0,0 l/m 0 min 0 min 227 W/m 25,7 km/h (4 Bft) 100,00 %
17.05.2021 09:56 12,7 C 13,3 C 11,1 C 83 % 1002,3 hPa 0,0 l/m 0 min 0 min 197 W/m 12,9 km/h (3 Bft) 100,00 %
17.05.2021 09:58 12,8 C 13,3 C 11,7 C 83 % 1002,3 hPa 0,0 l/m 0 min 0 min 237 W/m 16,1 km/h (3 Bft) 100,00 %
17.05.2021 10:00 12,9 C 13,3 C 11,7 C 83 % 1002,3 hPa 0,0 l/m 0 min 0 min 220 W/m 19,3 km/h (3 Bft) 100,00 %
17.05.2021 10:02 12,9 C 13,3 C 11,7 C 83 % 1002,2 hPa 0,0 l/m 0 min 0 min 226 W/m 16,1 km/h (3 Bft) 100,00 %
17.05.2021 10:04 12,9 C 13,3 C 11,7 C 83 % 1002,3 hPa 0,0 l/m 0 min 0 min 166 W/m 25,7 km/h (4 Bft) 100,00 %
17.05.2021 10:06 13,0 C 13,3 C 11,7 C 83 % 1002,3 hPa 0,0 l/m 0 min 0 min 196 W/m 16,1 km/h (3 Bft) 97,87 %
17.05.2021 10:08 13,0 C 13,9 C 12,3 C 83 % 1002,3 hPa 0,0 l/m 0 min 0 min 260 W/m 16,1 km/h (3 Bft) 96,55 %
17.05.2021 10:10 13,0 C 13,3 C 12,3 C 82 % 1002,3 hPa 0,0 l/m 0 min 0 min 187 W/m 38,6 km/h (5 Bft) 100,00 %
17.05.2021 10:12 13,0 C 12,8 C 11,7 C 82 % 1002,4 hPa 0,0 l/m 0 min 0 min 98 W/m 32,2 km/h (5 Bft) 97,83 %
17.05.2021 10:14 13,0 C 12,8 C 11,1 C 82 % 1002,4 hPa 0,0 l/m 0 min 0 min 87 W/m 19,3 km/h (3 Bft) 97,87 %
17.05.2021 10:16 13,0 C 12,8 C 11,1 C 82 % 1002,4 hPa 0,0 l/m 0 min 0 min 149 W/m 12,9 km/h (3 Bft) 97,87 %
17.05.2021 10:18 13,0 C 12,8 C 11,1 C 82 % 1002,4 hPa 0,0 l/m 0 min 0 min 205 W/m 25,7 km/h (4 Bft) 97,87 %
17.05.2021 10:20 12,9 C 12,8 C 11,1 C 82 % 1002,4 hPa 0,0 l/m 0 min 0 min 209 W/m 22,5 km/h (4 Bft) 95,74 %
17.05.2021 10:22 12,9 C 12,8 C 11,1 C 82 % 1002,4 hPa 0,0 l/m 0 min 0 min 187 W/m 29,0 km/h (5 Bft) 97,87 %
17.05.2021 10:24 12,9 C 12,8 C 11,1 C 82 % 1002,4 hPa 0,0 l/m 0 min 0 min 103 W/m 25,7 km/h (4 Bft) 97,83 %
17.05.2021 10:26 12,9 C 12,2 C 10,6 C 82 % 1002,5 hPa 0,0 l/m 0 min 0 min 90 W/m 35,4 km/h (5 Bft) 97,87 %
17.05.2021 10:28 12,8 C 11,7 C 10,0 C 83 % 1002,6 hPa 0,0 l/m 0 min 2 min 120 W/m 35,4 km/h (5 Bft) 97,87 %
17.05.2021 10:30 12,5 C 11,1 C 8,9 C 84 % 1002,6 hPa 0,0 l/m 0 min 2 min 117 W/m 32,2 km/h (5 Bft) 97,87 %
17.05.2021 10:32 12,4 C 10,6 C 8,9 C 85 % 1002,6 hPa 0,2 l/m 0 min 2 min 102 W/m 29,0 km/h (5 Bft) 97,87 %
17.05.2021 10:34 12,1 C 11,1 C 8,9 C 87 % 1002,5 hPa 0,0 l/m 0 min 2 min 180 W/m 22,5 km/h (4 Bft) 97,87 %
17.05.2021 10:36 12,1 C 11,7 C 9,5 C 88 % 1002,6 hPa 0,0 l/m 2 min 0 min 392 W/m 19,3 km/h (3 Bft) 97,83 %
17.05.2021 10:38 12,1 C 12,2 C 9,5 C 88 % 1002,6 hPa 0,0 l/m 2 min 0 min 499 W/m 22,5 km/h (4 Bft) 97,87 %
17.05.2021 10:40 12,1 C 12,2 C 9,5 C 89 % 1002,7 hPa 0,0 l/m 2 min 0 min 349 W/m 22,5 km/h (4 Bft) 97,87 %
17.05.2021 10:42 12,1 C 12,2 C 9,5 C 89 % 1002,6 hPa 0,0 l/m 0 min 0 min 259 W/m 12,9 km/h (3 Bft) 97,87 %
17.05.2021 10:44 12,2 C 12,2 C 9,5 C 90 % 1002,7 hPa 0,0 l/m 0 min 2 min 257 W/m 25,7 km/h (4 Bft) 97,87 %
17.05.2021 10:46 12,3 C 12,2 C 9,5 C 90 % 1002,6 hPa 0,0 l/m 0 min 0 min 292 W/m 25,7 km/h (4 Bft) 97,87 %
17.05.2021 10:48 12,3 C 12,2 C 9,5 C 90 % 1002,7 hPa 0,0 l/m 0 min 0 min 299 W/m 16,1 km/h (3 Bft) 97,83 %
17.05.2021 10:50 12,3 C 12,8 C 9,5 C 90 % 1002,6 hPa 0,0 l/m 0 min 0 min 265 W/m 22,5 km/h (4 Bft) 93,62 %
17.05.2021 10:52 12,3 C 12,8 C 9,5 C 90 % 1002,6 hPa 0,0 l/m 0 min 0 min 286 W/m 35,4 km/h (5 Bft) 95,74 %
17.05.2021 10:54 12,4 C 12,8 C 10,0 C 89 % 1002,6 hPa 0,0 l/m 0 min 0 min 294 W/m 19,3 km/h (3 Bft) 95,74 %
17.05.2021 10:56 12,5 C 13,3 C 10,0 C 90 % 1002,6 hPa 0,0 l/m 0 min 0 min 279 W/m 22,5 km/h (4 Bft) 95,74 %
17.05.2021 10:58 12,5 C 12,8 C 10,0 C 89 % 1002,5 hPa 0,0 l/m 0 min 0 min 246 W/m 22,5 km/h (4 Bft) 93,62 %
17.05.2021 11:00 12,6 C 12,8 C 10,0 C 88 % 1002,5 hPa 0,0 l/m 0 min 0 min 229 W/m 32,2 km/h (5 Bft) 95,65 %
17.05.2021 11:02 12,6 C 12,8 C 10,0 C 87 % 1002,6 hPa 0,0 l/m 0 min 0 min 257 W/m 35,4 km/h (5 Bft) 95,74 %
17.05.2021 11:04 12,6 C 12,8 C 10,0 C 87 % 1002,5 hPa 0,0 l/m 0 min 0 min 302 W/m 25,7 km/h (4 Bft) 95,74 %
17.05.2021 11:06 12,7 C 12,8 C 10,0 C 86 % 1002,5 hPa 0,0 l/m 0 min 0 min 306 W/m 35,4 km/h (5 Bft) 93,62 %
17.05.2021 11:08 12,8 C 13,9 C 10,6 C 86 % 1002,5 hPa 0,0 l/m 0 min 0 min 320 W/m 25,7 km/h (4 Bft) 93,10 %
17.05.2021 11:10 12,9 C 13,9 C 11,1 C 86 % 1002,6 hPa 0,0 l/m 2 min 0 min 502 W/m 35,4 km/h (5 Bft) 91,43 %
17.05.2021 11:12 13,1 C 14,4 C 11,7 C 86 % 1002,5 hPa 0,0 l/m 2 min 0 min 739 W/m 19,3 km/h (3 Bft) 96,23 %
17.05.2021 11:14 13,3 C 15,0 C 12,3 C 86 % 1002,5 hPa 0,0 l/m 2 min 0 min 898 W/m 12,9 km/h (3 Bft) 96,00 %
17.05.2021 11:16 13,4 C 14,4 C 11,7 C 85 % 1002,5 hPa 0,0 l/m 0 min 0 min 267 W/m 29,0 km/h (5 Bft) 95,74 %
17.05.2021 11:18 13,5 C 14,4 C 11,7 C 84 % 1002,5 hPa 0,0 l/m 0 min 0 min 253 W/m 19,3 km/h (3 Bft) 97,87 %
17.05.2021 11:20 13,6 C 14,4 C 11,7 C 84 % 1002,5 hPa 0,0 l/m 0 min 0 min 279 W/m 16,1 km/h (3 Bft) 97,37 %
17.05.2021 11:22 13,6 C 14,4 C 11,7 C 84 % 1002,5 hPa 0,0 l/m 0 min 0 min 277 W/m 16,1 km/h (3 Bft) 98,08 %
17.05.2021 11:24 13,6 C 14,4 C 11,7 C 83 % 1002,4 hPa 0,0 l/m 0 min 0 min 240 W/m 16,1 km/h (3 Bft) 95,74 %
17.05.2021 11:26 13,7 C 14,4 C 11,7 C 83 % 1002,4 hPa 0,0 l/m 0 min 0 min 195 W/m 12,9 km/h (3 Bft) 95,74 %
17.05.2021 11:28 13,7 C 14,4 C 11,7 C 83 % 1002,4 hPa 0,0 l/m 0 min 0 min 226 W/m 19,3 km/h (3 Bft) 95,74 %
17.05.2021 11:30 13,8 C 14,4 C 12,3 C 82 % 1002,4 hPa 0,0 l/m 0 min 0 min 230 W/m 35,4 km/h (5 Bft) 97,87 %
17.05.2021 11:32 13,9 C 15,0 C 12,8 C 81 % 1002,4 hPa 0,0 l/m 0 min 0 min 347 W/m 22,5 km/h (4 Bft) 100,00 %
17.05.2021 11:34 13,9 C 14,4 C 12,3 C 81 % 1002,4 hPa 0,0 l/m 2 min 0 min 482 W/m 32,2 km/h (5 Bft) 100,00 %
17.05.2021 11:36 14,0 C 14,4 C 12,3 C 80 % 1002,4 hPa 0,0 l/m 0 min 0 min 255 W/m 16,1 km/h (3 Bft) 97,87 %
17.05.2021 11:38 14,0 C 15,0 C 12,3 C 81 % 1002,4 hPa 0,0 l/m 0 min 0 min 346 W/m 19,3 km/h (3 Bft) 100,00 %
17.05.2021 11:40 14,2 C 15,6 C 13,4 C 81 % 1002,4 hPa 0,0 l/m 2 min 0 min 398 W/m 35,4 km/h (5 Bft) 97,87 %
17.05.2021 11:42 14,2 C 15,6 C 14,5 C 80 % 1002,3 hPa 0,0 l/m 2 min 0 min 1020 W/m 32,2 km/h (5 Bft) 100,00 %
17.05.2021 11:44 14,4 C 16,7 C 16,1 C 79 % 1002,4 hPa 0,0 l/m 2 min 0 min 1020 W/m 25,7 km/h (4 Bft) 100,00 %
17.05.2021 11:46 14,6 C 17,2 C 17,8 C 80 % 1002,3 hPa 0,0 l/m 2 min 0 min 992 W/m 22,5 km/h (4 Bft) 100,00 %
17.05.2021 11:48 14,8 C 17,8 C 17,3 C 79 % 1002,3 hPa 0,0 l/m 2 min 0 min 1034 W/m 38,6 km/h (5 Bft) 95,74 %
17.05.2021 11:50 15,0 C 17,8 C 16,7 C 77 % 1002,4 hPa 0,0 l/m 2 min 0 min 794 W/m 29,0 km/h (5 Bft) 100,00 %
17.05.2021 11:52 15,2 C 17,8 C 16,7 C 76 % 1002,3 hPa 0,0 l/m 2 min 0 min 796 W/m 32,2 km/h (5 Bft) 100,00 %
17.05.2021 11:54 15,3 C 16,7 C 15,6 C 76 % 1002,3 hPa 0,0 l/m 2 min 0 min 693 W/m 38,6 km/h (5 Bft) 100,00 %
17.05.2021 11:56 15,3 C 16,1 C 15,0 C 75 % 1002,3 hPa 0,0 l/m 2 min 0 min 479 W/m 25,7 km/h (4 Bft) 97,87 %
17.05.2021 11:58 15,3 C 15,6 C 14,5 C 75 % 1002,3 hPa 0,0 l/m 0 min 0 min 300 W/m 25,7 km/h (4 Bft) 97,83 %
17.05.2021 12:00 15,3 C 15,6 C 13,9 C 75 % 1002,2 hPa 0,0 l/m 0 min 0 min 245 W/m 35,4 km/h (5 Bft) 100,00 %
17.05.2021 12:02 15,1 C 15,0 C 13,4 C 75 % 1002,3 hPa 0,0 l/m 0 min 0 min 229 W/m 35,4 km/h (5 Bft) 100,00 %
17.05.2021 12:04 15,0 C 15,0 C 13,4 C 76 % 1002,4 hPa 0,0 l/m 0 min 0 min 308 W/m 35,4 km/h (5 Bft) 95,74 %
17.05.2021 12:08 14,6 C 13,9 C 12,3 C 76 % 1002,5 hPa 0,0 l/m 0 min 0 min 125 W/m 35,4 km/h (5 Bft) 100,00 %
17.05.2021 12:10 14,4 C 13,3 C 11,1 C 78 % 1002,5 hPa 0,0 l/m 0 min 2 min 76 W/m 22,5 km/h (4 Bft) 100,00 %
17.05.2021 12:12 14,2 C 12,2 C 9,5 C 81 % 1002,5 hPa 0,4 l/m 0 min 2 min 121 W/m 22,5 km/h (4 Bft) 97,87 %
17.05.2021 12:14 13,9 C 11,7 C 9,5 C 83 % 1002,6 hPa 0,0 l/m 0 min 2 min 193 W/m 29,0 km/h (5 Bft) 97,87 %
17.05.2021 12:16 13,6 C 12,2 C 9,5 C 84 % 1002,5 hPa 0,0 l/m 0 min 2 min 270 W/m 22,5 km/h (4 Bft) 97,56 %
17.05.2021 12:18 13,4 C 12,2 C 9,5 C 85 % 1002,5 hPa 0,0 l/m 0 min 2 min 327 W/m 29,0 km/h (5 Bft) 100,00 %
17.05.2021 12:20 13,2 C 12,2 C 9,5 C 85 % 1002,4 hPa 0,0 l/m 0 min 0 min 322 W/m 22,5 km/h (4 Bft) 100,00 %
17.05.2021 12:22 13,1 C 12,8 C 10,0 C 86 % 1002,4 hPa 0,0 l/m 0 min 0 min 369 W/m 25,7 km/h (4 Bft) 100,00 %
17.05.2021 12:24 13,1 C 12,8 C 10,0 C 87 % 1002,5 hPa 0,0 l/m 0 min 0 min 383 W/m 19,3 km/h (3 Bft) 95,74 %
17.05.2021 12:26 13,1 C 12,8 C 10,0 C 88 % 1002,5 hPa 0,0 l/m 0 min 0 min 289 W/m 29,0 km/h (5 Bft) 97,87 %
17.05.2021 12:28 13,1 C 12,8 C 9,5 C 87 % 1002,5 hPa 0,0 l/m 0 min 0 min 201 W/m 22,5 km/h (4 Bft) 97,87 %
17.05.2021 12:30 13,0 C 12,8 C 9,5 C 87 % 1002,4 hPa 0,0 l/m 0 min 0 min 197 W/m 16,1 km/h (3 Bft) 97,87 %
17.05.2021 12:32 13,0 C 12,8 C 9,5 C 87 % 1002,4 hPa 0,0 l/m 0 min 0 min 234 W/m 16,1 km/h (3 Bft) 95,74 %
17.05.2021 12:34 13,0 C 12,8 C 10,0 C 87 % 1002,5 hPa 0,0 l/m 0 min 0 min 304 W/m 25,7 km/h (4 Bft) 96,15 %
17.05.2021 12:36 13,1 C 12,8 C 10,0 C 87 % 1002,5 hPa 0,0 l/m 0 min 0 min 240 W/m 25,7 km/h (4 Bft) 97,87 %
17.05.2021 12:38 13,0 C 12,8 C 9,5 C 87 % 1002,5 hPa 0,0 l/m 0 min 0 min 146 W/m 29,0 km/h (5 Bft) 97,87 %
17.05.2021 12:40 13,1 C 12,8 C 9,5 C 87 % 1002,5 hPa 0,0 l/m 0 min 0 min 113 W/m 29,0 km/h (5 Bft) 97,87 %
17.05.2021 12:42 13,0 C 12,8 C 9,5 C 87 % 1002,5 hPa 0,0 l/m 0 min 2 min 115 W/m 25,7 km/h (4 Bft) 97,87 %
17.05.2021 12:44 13,0 C 12,8 C 9,5 C 87 % 1002,6 hPa 0,0 l/m 0 min 2 min 182 W/m 12,9 km/h (3 Bft) 97,87 %
17.05.2021 12:46 13,0 C 13,9 C 12,8 C 88 % 1002,5 hPa 0,0 l/m 0 min 0 min 364 W/m 25,7 km/h (4 Bft) 97,50 %
17.05.2021 12:48 13,1 C 14,4 C 15,0 C 89 % 1002,5 hPa 0,0 l/m 2 min 0 min 1081 W/m 19,3 km/h (3 Bft) 97,87 %
17.05.2021 12:50 13,5 C 15,0 C 16,7 C 89 % 1002,5 hPa 0,0 l/m 2 min 0 min 1057 W/m 12,9 km/h (3 Bft) 97,87 %
17.05.2021 12:52 13,7 C 15,6 C 16,1 C 89 % 1002,5 hPa 0,0 l/m 2 min 0 min 908 W/m 16,1 km/h (3 Bft) 96,23 %
17.05.2021 12:54 13,8 C 14,4 C 14,5 C 87 % 1002,5 hPa 0,0 l/m 0 min 0 min 216 W/m 16,1 km/h (3 Bft) 97,87 %
17.05.2021 12:56 13,8 C 14,4 C 13,4 C 86 % 1002,5 hPa 0,0 l/m 0 min 0 min 204 W/m 16,1 km/h (3 Bft) 97,83 %
17.05.2021 12:58 13,9 C 14,4 C 12,8 C 86 % 1002,5 hPa 0,0 l/m 0 min 0 min 280 W/m 19,3 km/h (3 Bft) 97,87 %
17.05.2021 13:00 13,9 C 14,4 C 13,4 C 85 % 1002,5 hPa 0,0 l/m 0 min 0 min 329 W/m 16,1 km/h (3 Bft) 97,87 %
17.05.2021 13:02 14,0 C 14,4 C 14,5 C 84 % 1002,5 hPa 0,0 l/m 0 min 0 min 266 W/m 22,5 km/h (4 Bft) 97,56 %
17.05.2021 13:04 14,2 C 15,6 C 17,3 C 84 % 1002,5 hPa 0,0 l/m 2 min 0 min 724 W/m 35,4 km/h (5 Bft) 98,11 %
17.05.2021 13:06 14,2 C 15,6 C 17,3 C 82 % 1002,5 hPa 0,0 l/m 2 min 0 min 1093 W/m 48,3 km/h (6 Bft) 93,62 %
17.05.2021 13:08 14,4 C 15,6 C 16,7 C 82 % 1002,6 hPa 0,0 l/m 2 min 0 min 1123 W/m 22,5 km/h (4 Bft) 95,65 %
17.05.2021 13:10 14,6 C 16,1 C 18,4 C 83 % 1002,6 hPa 0,0 l/m 2 min 0 min 1123 W/m 25,7 km/h (4 Bft) 97,87 %
17.05.2021 13:12 14,6 C 16,1 C 17,3 C 81 % 1002,6 hPa 0,0 l/m 2 min 0 min 855 W/m 29,0 km/h (5 Bft) 97,87 %
17.05.2021 13:14 14,6 C 15,6 C 17,3 C 81 % 1002,6 hPa 0,0 l/m 2 min 0 min 784 W/m 25,7 km/h (4 Bft) 97,87 %
17.05.2021 13:16 14,6 C 15,6 C 16,1 C 82 % 1002,5 hPa 0,0 l/m 2 min 0 min 526 W/m 29,0 km/h (5 Bft) 95,12 %
17.05.2021 13:18 14,6 C 15,6 C 17,3 C 81 % 1002,6 hPa 0,0 l/m 2 min 0 min 586 W/m 38,6 km/h (5 Bft) 96,23 %
17.05.2021 13:20 14,5 C 15,6 C 17,8 C 81 % 1002,6 hPa 0,0 l/m 2 min 0 min 932 W/m 32,2 km/h (5 Bft) 97,83 %
17.05.2021 13:22 14,6 C 15,6 C 16,7 C 81 % 1002,6 hPa 0,0 l/m 2 min 0 min 717 W/m 35,4 km/h (5 Bft) 95,74 %
17.05.2021 13:24 14,3 C 14,4 C 14,5 C 80 % 1002,7 hPa 0,0 l/m 0 min 0 min 366 W/m 41,8 km/h (6 Bft) 97,87 %
17.05.2021 13:26 14,2 C 13,9 C 12,8 C 82 % 1002,7 hPa 0,0 l/m 0 min 2 min 275 W/m 32,2 km/h (5 Bft) 95,74 %
17.05.2021 13:28 14,2 C 13,9 C 12,3 C 84 % 1002,7 hPa 0,0 l/m 0 min 2 min 257 W/m 22,5 km/h (4 Bft) 95,74 %
17.05.2021 13:30 13,9 C 13,3 C 11,1 C 85 % 1002,7 hPa 0,0 l/m 0 min 2 min 231 W/m 35,4 km/h (5 Bft) 97,87 %
17.05.2021 13:32 13,6 C 12,8 C 10,6 C 85 % 1002,8 hPa 0,0 l/m 0 min 2 min 192 W/m 25,7 km/h (4 Bft) 95,65 %
17.05.2021 13:34 13,4 C 12,8 C 10,6 C 86 % 1002,7 hPa 0,0 l/m 0 min 2 min 159 W/m 19,3 km/h (3 Bft) 97,87 %
17.05.2021 13:36 13,3 C 12,8 C 10,6 C 86 % 1002,7 hPa 0,0 l/m 0 min 2 min 144 W/m 16,1 km/h (3 Bft) 97,87 %
17.05.2021 13:38 13,3 C 12,8 C 10,6 C 87 % 1002,7 hPa 0,0 l/m 0 min 2 min 181 W/m 32,2 km/h (5 Bft) 97,87 %
17.05.2021 13:40 13,0 C 12,8 C 10,6 C 87 % 1002,8 hPa 0,0 l/m 0 min 2 min 208 W/m 32,2 km/h (5 Bft) 97,87 %
17.05.2021 13:42 12,9 C 12,8 C 10,6 C 87 % 1002,7 hPa 0,0 l/m 0 min 2 min 286 W/m 25,7 km/h (4 Bft) 95,74 %
17.05.2021 13:44 12,8 C 12,2 C 10,6 C 88 % 1002,7 hPa 0,0 l/m 0 min 2 min 263 W/m 35,4 km/h (5 Bft) 97,83 %
17.05.2021 13:46 12,7 C 12,2 C 10,6 C 88 % 1002,7 hPa 0,0 l/m 0 min 2 min 211 W/m 22,5 km/h (4 Bft) 97,56 %
17.05.2021 13:48 12,6 C 12,2 C 10,6 C 89 % 1002,7 hPa 0,0 l/m 0 min 2 min 189 W/m 32,2 km/h (5 Bft) 98,11 %
17.05.2021 13:50 12,5 C 12,2 C 10,6 C 89 % 1002,8 hPa 0,0 l/m 0 min 2 min 193 W/m 25,7 km/h (4 Bft) 97,87 %
17.05.2021 13:52 12,5 C 12,2 C 10,0 C 90 % 1002,7 hPa 0,0 l/m 0 min 0 min 169 W/m 22,5 km/h (4 Bft) 97,87 %
17.05.2021 13:54 12,4 C 12,2 C 10,0 C 90 % 1002,8 hPa 0,0 l/m 0 min 2 min 191 W/m 32,2 km/h (5 Bft) 95,74 %
17.05.2021 13:56 12,4 C 12,2 C 10,0 C 90 % 1002,7 hPa 0,0 l/m 0 min 2 min 195 W/m 32,2 km/h (5 Bft) 97,83 %
17.05.2021 13:58 12,3 C 12,2 C 10,0 C 91 % 1002,7 hPa 0,0 l/m 0 min 2 min 226 W/m 25,7 km/h (4 Bft) 97,87 %
17.05.2021 14:00 12,3 C 12,2 C 10,0 C 91 % 1002,7 hPa 0,0 l/m 0 min 2 min 296 W/m 29,0 km/h (5 Bft) 95,74 %
17.05.2021 14:02 12,3 C 12,2 C 10,6 C 91 % 1002,8 hPa 0,0 l/m 0 min 2 min 354 W/m 29,0 km/h (5 Bft) 97,73 %
17.05.2021 14:04 12,3 C 12,8 C 10,6 C 92 % 1002,7 hPa 0,0 l/m 0 min 2 min 286 W/m 25,7 km/h (4 Bft) 95,74 %
17.05.2021 14:06 12,3 C 12,8 C 10,6 C 92 % 1002,9 hPa 0,0 l/m 0 min 2 min 221 W/m 32,2 km/h (5 Bft) 95,74 %
17.05.2021 14:08 12,4 C 12,2 C 10,6 C 92 % 1002,8 hPa 0,0 l/m 0 min 0 min 207 W/m 35,4 km/h (5 Bft) 95,65 %
17.05.2021 14:10 12,4 C 12,2 C 10,6 C 92 % 1002,8 hPa 0,0 l/m 0 min 0 min 144 W/m 19,3 km/h (3 Bft) 95,74 %
17.05.2021 14:12 12,4 C 12,2 C 10,6 C 92 % 1002,7 hPa 0,0 l/m 0 min 0 min 124 W/m 12,9 km/h (3 Bft) 97,87 %
17.05.2021 14:14 12,4 C 12,2 C 10,6 C 92 % 1002,8 hPa 0,0 l/m 0 min 2 min 135 W/m 22,5 km/h (4 Bft) 95,74 %
17.05.2021 14:16 12,4 C 12,2 C 10,0 C 92 % 1002,7 hPa 0,0 l/m 0 min 2 min 173 W/m 19,3 km/h (3 Bft) 97,87 %
17.05.2021 14:18 12,4 C 12,2 C 10,6 C 92 % 1002,7 hPa 0,0 l/m 0 min 2 min 178 W/m 22,5 km/h (4 Bft) 97,87 %
17.05.2021 14:20 12,4 C 12,2 C 10,6 C 93 % 1002,8 hPa 0,0 l/m 0 min 0 min 203 W/m 19,3 km/h (3 Bft) 95,65 %
17.05.2021 14:22 12,5 C 12,8 C 10,6 C 93 % 1002,8 hPa 0,0 l/m 0 min 2 min 295 W/m 41,8 km/h (6 Bft) 95,74 %
17.05.2021 14:24 12,5 C 13,9 C 11,1 C 93 % 1002,7 hPa 0,0 l/m 0 min 2 min 313 W/m 22,5 km/h (4 Bft) 97,87 %
17.05.2021 14:26 12,7 C 14,4 C 11,7 C 93 % 1002,7 hPa 0,0 l/m 0 min 0 min 352 W/m 29,0 km/h (5 Bft) 97,87 %
17.05.2021 14:28 13,0 C 15,0 C 12,3 C 93 % 1002,7 hPa 0,0 l/m 2 min 0 min 679 W/m 22,5 km/h (4 Bft) 97,87 %
17.05.2021 14:30 13,3 C 15,6 C 12,8 C 94 % 1002,7 hPa 0,0 l/m 2 min 0 min 937 W/m 38,6 km/h (5 Bft) 95,74 %
17.05.2021 14:32 13,4 C 15,0 C 12,8 C 93 % 1002,8 hPa 0,0 l/m 2 min 0 min 424 W/m 35,4 km/h (5 Bft) 97,83 %
17.05.2021 14:34 13,5 C 14,4 C 12,8 C 91 % 1002,7 hPa 0,0 l/m 0 min 0 min 319 W/m 29,0 km/h (5 Bft) 95,74 %
17.05.2021 14:36 13,5 C 14,4 C 12,8 C 91 % 1002,7 hPa 0,0 l/m 0 min 0 min 259 W/m 16,1 km/h (3 Bft) 97,87 %
17.05.2021 14:38 13,6 C 13,9 C 12,3 C 91 % 1002,7 hPa 0,0 l/m 0 min 0 min 206 W/m 25,7 km/h (4 Bft) 97,87 %
17.05.2021 14:40 13,6 C 13,9 C 12,3 C 90 % 1002,8 hPa 0,0 l/m 0 min 0 min 193 W/m 22,5 km/h (4 Bft) 97,87 %
17.05.2021 14:42 13,6 C 13,9 C 12,3 C 90 % 1002,8 hPa 0,0 l/m 0 min 0 min 184 W/m 9,7 km/h (2 Bft) 97,87 %
17.05.2021 14:44 13,6 C 13,9 C 12,3 C 90 % 1002,9 hPa 0,0 l/m 0 min 0 min 252 W/m 25,7 km/h (4 Bft) 97,83 %
17.05.2021 14:46 13,6 C 14,4 C 12,3 C 89 % 1002,8 hPa 0,0 l/m 0 min 0 min 353 W/m 19,3 km/h (3 Bft) 95,74 %
17.05.2021 14:48 13,7 C 14,4 C 12,8 C 89 % 1002,8 hPa 0,0 l/m 2 min 0 min 446 W/m 16,1 km/h (3 Bft) 97,87 %
17.05.2021 14:50 13,8 C 14,4 C 12,8 C 90 % 1002,8 hPa 0,0 l/m 2 min 0 min 401 W/m 35,4 km/h (5 Bft) 97,87 %
17.05.2021 14:52 13,8 C 14,4 C 12,8 C 89 % 1002,9 hPa 0,0 l/m 2 min 0 min 436 W/m 32,2 km/h (5 Bft) 97,87 %
17.05.2021 14:54 13,9 C 14,4 C 12,8 C 89 % 1002,9 hPa 0,0 l/m 0 min 0 min 332 W/m 22,5 km/h (4 Bft) 97,83 %
17.05.2021 14:56 13,9 C 13,9 C 12,3 C 89 % 1002,9 hPa 0,0 l/m 0 min 2 min 190 W/m 22,5 km/h (4 Bft) 97,87 %
17.05.2021 14:58 13,9 C 13,9 C 11,1 C 89 % 1002,9 hPa 0,0 l/m 0 min 2 min 153 W/m 19,3 km/h (3 Bft) 97,87 %
17.05.2021 15:00 13,8 C 13,3 C 11,1 C 89 % 1002,9 hPa 0,0 l/m 0 min 2 min 181 W/m 16,1 km/h (3 Bft) 97,87 %
17.05.2021 15:02 13,7 C 13,3 C 10,6 C 90 % 1002,9 hPa 0,2 l/m 0 min 2 min 188 W/m 16,1 km/h (3 Bft) 97,87 %
17.05.2021 15:04 13,6 C 12,8 C 10,6 C 90 % 1003,0 hPa 0,2 l/m 0 min 2 min 188 W/m 16,1 km/h (3 Bft) 97,87 %
17.05.2021 15:06 13,4 C 12,8 C 10,6 C 91 % 1003,0 hPa 0,0 l/m 0 min 2 min 273 W/m 19,3 km/h (3 Bft) 97,87 %
17.05.2021 15:08 13,4 C 12,8 C 10,6 C 91 % 1003,0 hPa 0,0 l/m 0 min 0 min 269 W/m 35,4 km/h (5 Bft) 97,83 %
17.05.2021 15:10 13,3 C 13,3 C 10,0 C 91 % 1003,0 hPa 0,0 l/m 0 min 0 min 237 W/m 25,7 km/h (4 Bft) 97,87 %
17.05.2021 15:12 13,4 C 13,9 C 10,6 C 91 % 1003,0 hPa 0,0 l/m 0 min 0 min 315 W/m 6,4 km/h (2 Bft) 100,00 %
17.05.2021 15:14 13,5 C 14,4 C 11,1 C 92 % 1003,0 hPa 0,0 l/m 0 min 0 min 319 W/m 19,3 km/h (3 Bft) 100,00 %
17.05.2021 15:16 13,5 C 13,9 C 11,1 C 92 % 1003,0 hPa 0,0 l/m 0 min 0 min 239 W/m 16,1 km/h (3 Bft) 100,00 %
17.05.2021 15:18 13,5 C 13,9 C 10,6 C 92 % 1003,1 hPa 0,0 l/m 0 min 0 min 207 W/m 22,5 km/h (4 Bft) 100,00 %
17.05.2021 15:20 13,6 C 13,9 C 10,6 C 92 % 1003,1 hPa 0,0 l/m 0 min 0 min 211 W/m 16,1 km/h (3 Bft) 97,87 %
17.05.2021 15:22 13,6 C 13,3 C 10,6 C 92 % 1003,1 hPa 0,0 l/m 0 min 0 min 163 W/m 12,9 km/h (3 Bft) 100,00 %
17.05.2021 15:24 13,6 C 13,3 C 10,6 C 91 % 1003,1 hPa 0,0 l/m 0 min 0 min 143 W/m 22,5 km/h (4 Bft) 100,00 %
17.05.2021 15:26 13,5 C 13,3 C 10,6 C 91 % 1003,2 hPa 0,0 l/m 0 min 0 min 122 W/m 22,5 km/h (4 Bft) 97,87 %
17.05.2021 15:28 13,5 C 12,8 C 10,6 C 91 % 1003,3 hPa 0,0 l/m 0 min 2 min 90 W/m 16,1 km/h (3 Bft) 95,74 %
17.05.2021 15:30 13,5 C 12,8 C 10,6 C 91 % 1003,3 hPa 0,0 l/m 0 min 2 min 84 W/m 12,9 km/h (3 Bft) 100,00 %
17.05.2021 15:32 13,4 C 12,8 C 10,0 C 91 % 1003,2 hPa 0,0 l/m 0 min 2 min 60 W/m 9,7 km/h (2 Bft) 97,87 %
17.05.2021 15:34 13,4 C 12,2 C 10,0 C 91 % 1003,2 hPa 0,0 l/m 0 min 2 min 40 W/m 16,1 km/h (3 Bft) 100,00 %
17.05.2021 15:36 13,3 C 12,2 C 10,0 C 91 % 1003,3 hPa 0,0 l/m 0 min 2 min 33 W/m 12,9 km/h (3 Bft) 100,00 %
17.05.2021 15:38 13,2 C 12,2 C 10,0 C 91 % 1003,4 hPa 0,2 l/m 0 min 2 min 54 W/m 16,1 km/h (3 Bft) 95,74 %
17.05.2021 15:40 13,2 C 12,2 C 10,0 C 92 % 1003,5 hPa 0,0 l/m 0 min 2 min 67 W/m 12,9 km/h (3 Bft) 100,00 %
17.05.2021 15:42 13,1 C 12,2 C 10,0 C 92 % 1003,5 hPa 0,2 l/m 0 min 2 min 57 W/m 16,1 km/h (3 Bft) 100,00 %
17.05.2021 15:44 13,0 C 12,2 C 10,0 C 92 % 1003,4 hPa 0,0 l/m 0 min 2 min 87 W/m 19,3 km/h (3 Bft) 100,00 %
17.05.2021 15:46 12,9 C 12,2 C 9,5 C 92 % 1003,5 hPa 0,0 l/m 0 min 2 min 120 W/m 12,9 km/h (3 Bft) 97,87 %
17.05.2021 15:48 12,9 C 12,8 C 10,0 C 93 % 1003,5 hPa 0,0 l/m 0 min 0 min 263 W/m 9,7 km/h (2 Bft) 100,00 %
17.05.2021 15:50 13,0 C 13,9 C 10,6 C 93 % 1003,6 hPa 0,0 l/m 0 min 0 min 334 W/m 16,1 km/h (3 Bft) 100,00 %
17.05.2021 15:52 13,1 C 14,4 C 10,6 C 94 % 1003,5 hPa 0,0 l/m 2 min 0 min 717 W/m 19,3 km/h (3 Bft) 100,00 %
17.05.2021 15:54 13,3 C 15,0 C 11,1 C 94 % 1003,6 hPa 0,0 l/m 2 min 0 min 486 W/m 16,1 km/h (3 Bft) 100,00 %
17.05.2021 15:56 13,5 C 15,6 C 11,1 C 94 % 1003,5 hPa 0,0 l/m 2 min 0 min 605 W/m 16,1 km/h (3 Bft) 97,87 %
17.05.2021 15:58 13,6 C 15,6 C 11,7 C 95 % 1003,6 hPa 0,0 l/m 2 min 0 min 737 W/m 25,7 km/h (4 Bft) 97,87 %
17.05.2021 16:00 13,8 C 15,0 C 11,7 C 94 % 1003,6 hPa 0,0 l/m 2 min 0 min 638 W/m 32,2 km/h (5 Bft) 97,87 %
17.05.2021 16:02 13,9 C 14,4 C 11,1 C 94 % 1003,6 hPa 0,0 l/m 0 min 0 min 235 W/m 16,1 km/h (3 Bft) 97,87 %
17.05.2021 16:04 13,9 C 14,4 C 11,1 C 93 % 1003,7 hPa 0,0 l/m 0 min 0 min 179 W/m 29,0 km/h (5 Bft) 97,87 %
17.05.2021 16:06 13,9 C 13,9 C 11,1 C 93 % 1003,7 hPa 0,0 l/m 0 min 0 min 172 W/m 16,1 km/h (3 Bft) 97,83 %
17.05.2021 16:08 13,8 C 13,9 C 11,1 C 92 % 1003,7 hPa 0,0 l/m 0 min 0 min 180 W/m 16,1 km/h (3 Bft) 97,87 %
17.05.2021 16:10 13,9 C 13,9 C 11,1 C 92 % 1003,7 hPa 0,0 l/m 0 min 0 min 215 W/m 16,1 km/h (3 Bft) 95,74 %
17.05.2021 16:12 13,8 C 14,4 C 11,1 C 92 % 1003,7 hPa 0,0 l/m 0 min 0 min 307 W/m 19,3 km/h (3 Bft) 97,87 %
17.05.2021 16:14 13,9 C 14,4 C 11,1 C 92 % 1003,7 hPa 0,0 l/m 0 min 0 min 294 W/m 16,1 km/h (3 Bft) 97,87 %
17.05.2021 16:16 13,9 C 14,4 C 11,1 C 92 % 1003,8 hPa 0,0 l/m 0 min 0 min 291 W/m 29,0 km/h (5 Bft) 95,74 %
17.05.2021 16:18 13,8 C 13,9 C 11,1 C 91 % 1003,8 hPa 0,0 l/m 0 min 0 min 225 W/m 19,3 km/h (3 Bft) 95,65 %
17.05.2021 16:20 13,8 C 13,3 C 10,6 C 90 % 1003,8 hPa 0,0 l/m 0 min 0 min 131 W/m 22,5 km/h (4 Bft) 93,62 %
17.05.2021 16:22 13,7 C 13,3 C 10,6 C 90 % 1003,9 hPa 0,0 l/m 0 min 2 min 96 W/m 19,3 km/h (3 Bft) 95,74 %
17.05.2021 16:24 13,6 C 13,3 C 10,6 C 90 % 1004,0 hPa 0,0 l/m 0 min 2 min 174 W/m 29,0 km/h (5 Bft) 95,74 %
17.05.2021 16:26 13,6 C 13,9 C 10,6 C 90 % 1004,0 hPa 0,0 l/m 0 min 2 min 286 W/m 12,9 km/h (3 Bft) 93,62 %
17.05.2021 16:28 13,6 C 14,4 C 11,1 C 91 % 1004,0 hPa 0,0 l/m 0 min 2 min 318 W/m 19,3 km/h (3 Bft) 95,74 %
17.05.2021 16:30 13,6 C 15,0 C 11,1 C 92 % 1004,1 hPa 0,0 l/m 0 min 2 min 264 W/m 19,3 km/h (3 Bft) 93,48 %
17.05.2021 16:32 13,6 C 15,6 C 11,1 C 92 % 1004,1 hPa 0,0 l/m 2 min 0 min 748 W/m 38,6 km/h (5 Bft) 95,74 %
17.05.2021 16:34 13,7 C 14,4 C 11,1 C 92 % 1004,1 hPa 0,0 l/m 2 min 0 min 500 W/m 22,5 km/h (4 Bft) 91,49 %
17.05.2021 16:36 13,7 C 15,6 C 11,1 C 92 % 1004,2 hPa 0,0 l/m 0 min 0 min 288 W/m 16,1 km/h (3 Bft) 80,85 %
17.05.2021 16:38 13,8 C 14,4 C 11,1 C 92 % 1004,3 hPa 0,0 l/m 0 min 0 min 288 W/m 25,7 km/h (4 Bft) 78,72 %
17.05.2021 16:40 13,8 C 14,4 C 10,6 C 91 % 1004,3 hPa 0,0 l/m 0 min 0 min 262 W/m 32,2 km/h (5 Bft) 74,47 %
17.05.2021 16:42 13,8 C 15,0 C 11,1 C 91 % 1004,3 hPa 0,0 l/m 2 min 0 min 339 W/m 35,4 km/h (5 Bft) 89,13 %
17.05.2021 16:44 13,8 C 15,6 C 11,1 C 90 % 1004,4 hPa 0,0 l/m 2 min 0 min 507 W/m 25,7 km/h (4 Bft) 91,49 %
17.05.2021 16:46 13,9 C 17,2 C 11,1 C 90 % 1004,4 hPa 0,0 l/m 2 min 0 min 516 W/m 32,2 km/h (5 Bft) 85,11 %
17.05.2021 16:48 14,0 C 16,7 C 11,7 C 90 % 1004,5 hPa 0,0 l/m 2 min 0 min 733 W/m 19,3 km/h (3 Bft) 93,62 %
17.05.2021 16:50 14,2 C 15,6 C 11,7 C 89 % 1004,6 hPa 0,0 l/m 0 min 0 min 270 W/m 22,5 km/h (4 Bft) 97,87 %
17.05.2021 16:52 14,2 C 16,1 C 11,1 C 88 % 1004,5 hPa 0,0 l/m 2 min 0 min 343 W/m 25,7 km/h (4 Bft) 97,87 %
17.05.2021 16:54 14,2 C 16,1 C 11,1 C 88 % 1004,6 hPa 0,0 l/m 2 min 0 min 350 W/m 19,3 km/h (3 Bft) 95,65 %
17.05.2021 16:56 14,2 C 16,7 C 11,7 C 88 % 1004,7 hPa 0,0 l/m 2 min 0 min 364 W/m 22,5 km/h (4 Bft) 93,62 %
17.05.2021 16:58 14,3 C 15,6 C 12,3 C 87 % 1004,8 hPa 0,0 l/m 2 min 0 min 364 W/m 25,7 km/h (4 Bft) 89,36 %
17.05.2021 17:00 14,2 C 15,6 C 11,7 C 86 % 1004,7 hPa 0,0 l/m 2 min 0 min 347 W/m 25,7 km/h (4 Bft) 95,74 %
17.05.2021 17:02 14,2 C 15,6 C 12,3 C 86 % 1004,8 hPa 0,0 l/m 2 min 0 min 341 W/m 16,1 km/h (3 Bft) 94,34 %
17.05.2021 17:04 14,3 C 15,0 C 12,3 C 86 % 1004,8 hPa 0,0 l/m 2 min 0 min 349 W/m 35,4 km/h (5 Bft) 97,87 %
17.05.2021 17:06 14,3 C 15,0 C 12,3 C 87 % 1004,8 hPa 0,0 l/m 2 min 0 min 326 W/m 25,7 km/h (4 Bft) 97,83 %
17.05.2021 17:08 14,2 C 14,4 C 11,7 C 86 % 1004,9 hPa 0,0 l/m 2 min 0 min 322 W/m 25,7 km/h (4 Bft) 100,00 %
17.05.2021 17:10 14,2 C 14,4 C 11,7 C 86 % 1004,9 hPa 0,0 l/m 0 min 0 min 287 W/m 25,7 km/h (4 Bft) 95,74 %
17.05.2021 17:12 14,2 C 15,0 C 12,3 C 86 % 1004,9 hPa 0,0 l/m 0 min 0 min 285 W/m 22,5 km/h (4 Bft) 100,00 %
17.05.2021 17:14 14,2 C 14,4 C 11,7 C 86 % 1004,9 hPa 0,0 l/m 0 min 0 min 286 W/m 16,1 km/h (3 Bft) 100,00 %
17.05.2021 17:16 14,2 C 14,4 C 11,7 C 86 % 1005,0 hPa 0,0 l/m 0 min 0 min 244 W/m 25,7 km/h (4 Bft) 100,00 %
17.05.2021 17:18 14,2 C 14,4 C 11,7 C 86 % 1005,0 hPa 0,0 l/m 0 min 0 min 231 W/m 29,0 km/h (5 Bft) 100,00 %
17.05.2021 17:20 14,2 C 13,9 C 11,7 C 86 % 1005,0 hPa 0,0 l/m 0 min 0 min 215 W/m 16,1 km/h (3 Bft) 97,87 %
17.05.2021 17:22 14,2 C 13,9 C 11,7 C 86 % 1005,1 hPa 0,0 l/m 0 min 0 min 219 W/m 19,3 km/h (3 Bft) 100,00 %
17.05.2021 17:24 14,2 C 13,9 C 11,7 C 86 % 1005,1 hPa 0,0 l/m 0 min 0 min 176 W/m 25,7 km/h (4 Bft) 100,00 %
17.05.2021 17:26 14,2 C 13,9 C 11,7 C 86 % 1005,1 hPa 0,0 l/m 0 min 0 min 156 W/m 16,1 km/h (3 Bft) 100,00 %
17.05.2021 17:28 14,2 C 13,9 C 12,3 C 86 % 1005,1 hPa 0,0 l/m 0 min 0 min 208 W/m 19,3 km/h (3 Bft) 100,00 %
17.05.2021 17:30 14,2 C 14,4 C 12,3 C 86 % 1005,1 hPa 0,0 l/m 0 min 0 min 259 W/m 22,5 km/h (4 Bft) 100,00 %
17.05.2021 17:32 14,2 C 16,1 C 12,3 C 85 % 1005,2 hPa 0,0 l/m 2 min 0 min 341 W/m 35,4 km/h (5 Bft) 100,00 %
17.05.2021 17:34 14,2 C 15,6 C 12,3 C 85 % 1005,2 hPa 0,0 l/m 2 min 0 min 651 W/m 25,7 km/h (4 Bft) 100,00 %
17.05.2021 17:36 14,2 C 15,0 C 12,3 C 85 % 1005,2 hPa 0,0 l/m 0 min 0 min 221 W/m 12,9 km/h (3 Bft) 97,87 %
17.05.2021 17:38 14,2 C 14,4 C 12,3 C 85 % 1005,2 hPa 0,0 l/m 0 min 0 min 188 W/m 19,3 km/h (3 Bft) 100,00 %
17.05.2021 17:40 14,2 C 14,4 C 12,3 C 85 % 1005,3 hPa 0,0 l/m 0 min 0 min 173 W/m 12,9 km/h (3 Bft) 100,00 %
17.05.2021 17:42 14,2 C 14,4 C 12,3 C 85 % 1005,4 hPa 0,0 l/m 0 min 0 min 167 W/m 16,1 km/h (3 Bft) 100,00 %
17.05.2021 17:44 14,2 C 14,4 C 12,3 C 85 % 1005,3 hPa 0,0 l/m 0 min 0 min 166 W/m 19,3 km/h (3 Bft) 100,00 %
17.05.2021 17:46 14,2 C 15,0 C 12,3 C 85 % 1005,4 hPa 0,0 l/m 0 min 0 min 233 W/m 25,7 km/h (4 Bft) 97,87 %
17.05.2021 17:48 14,3 C 16,7 C 12,8 C 85 % 1005,4 hPa 0,0 l/m 2 min 0 min 427 W/m 22,5 km/h (4 Bft) 100,00 %
17.05.2021 17:50 14,5 C 16,7 C 12,8 C 85 % 1005,5 hPa 0,0 l/m 2 min 0 min 696 W/m 19,3 km/h (3 Bft) 100,00 %
17.05.2021 17:52 14,6 C 15,6 C 12,8 C 84 % 1005,5 hPa 0,0 l/m 2 min 0 min 363 W/m 19,3 km/h (3 Bft) 100,00 %
17.05.2021 17:54 14,5 C 15,0 C 12,8 C 83 % 1005,6 hPa 0,0 l/m 0 min 0 min 186 W/m 19,3 km/h (3 Bft) 97,87 %
17.05.2021 17:56 14,5 C 14,4 C 12,3 C 83 % 1005,6 hPa 0,0 l/m 0 min 0 min 172 W/m 16,1 km/h (3 Bft) 100,00 %
17.05.2021 17:58 14,4 C 14,4 C 12,3 C 83 % 1005,6 hPa 0,0 l/m 0 min 0 min 189 W/m 22,5 km/h (4 Bft) 100,00 %
17.05.2021 18:00 14,4 C 14,4 C 12,3 C 83 % 1005,7 hPa 0,0 l/m 0 min 0 min 226 W/m 19,3 km/h (3 Bft) 100,00 %
17.05.2021 18:02 14,3 C 13,9 C 12,3 C 83 % 1005,7 hPa 0,0 l/m 0 min 0 min 222 W/m 32,2 km/h (5 Bft) 100,00 %
17.05.2021 18:04 14,2 C 13,9 C 12,3 C 83 % 1005,7 hPa 0,0 l/m 0 min 0 min 186 W/m 19,3 km/h (3 Bft) 100,00 %
17.05.2021 18:08 14,2 C 13,9 C 11,7 C 83 % 1005,9 hPa 0,0 l/m 0 min 0 min 125 W/m 25,7 km/h (4 Bft) 98,94 %
17.05.2021 18:10 14,2 C 13,9 C 11,7 C 83 % 1005,8 hPa 0,0 l/m 0 min 0 min 84 W/m 22,5 km/h (4 Bft) 95,74 %
17.05.2021 18:12 14,2 C 13,9 C 11,7 C 83 % 1005,9 hPa 0,0 l/m 0 min 0 min 103 W/m 35,4 km/h (5 Bft) 100,00 %
17.05.2021 18:14 14,1 C 13,9 C 11,7 C 83 % 1005,9 hPa 0,0 l/m 0 min 0 min 161 W/m 29,0 km/h (5 Bft) 97,87 %
17.05.2021 18:16 14,1 C 13,9 C 11,7 C 83 % 1005,9 hPa 0,0 l/m 0 min 0 min 164 W/m 16,1 km/h (3 Bft) 97,87 %
17.05.2021 18:18 14,1 C 13,9 C 11,7 C 83 % 1006,0 hPa 0,0 l/m 0 min 0 min 150 W/m 12,9 km/h (3 Bft) 93,48 %
17.05.2021 18:20 14,1 C 13,9 C 11,7 C 84 % 1006,0 hPa 0,0 l/m 0 min 0 min 143 W/m 19,3 km/h (3 Bft) 97,87 %
17.05.2021 18:22 14,0 C 13,9 C 11,7 C 83 % 1006,0 hPa 0,0 l/m 0 min 0 min 141 W/m 22,5 km/h (4 Bft) 97,87 %
17.05.2021 18:24 14,0 C 13,9 C 11,7 C 83 % 1006,1 hPa 0,0 l/m 0 min 0 min 168 W/m 16,1 km/h (3 Bft) 97,87 %
17.05.2021 18:26 14,0 C 13,9 C 11,7 C 83 % 1006,1 hPa 0,0 l/m 0 min 0 min 191 W/m 12,9 km/h (3 Bft) 97,87 %
17.05.2021 18:28 14,1 C 14,4 C 11,7 C 83 % 1006,1 hPa 0,0 l/m 2 min 0 min 223 W/m 16,1 km/h (3 Bft) 97,83 %
17.05.2021 18:30 14,2 C 15,0 C 12,3 C 83 % 1006,0 hPa 0,0 l/m 2 min 0 min 297 W/m 19,3 km/h (3 Bft) 95,74 %
17.05.2021 18:32 14,2 C 15,0 C 12,3 C 82 % 1006,1 hPa 0,0 l/m 2 min 0 min 267 W/m 25,7 km/h (4 Bft) 89,36 %
17.05.2021 18:34 14,2 C 15,6 C 12,3 C 82 % 1006,1 hPa 0,0 l/m 2 min 0 min 369 W/m 22,5 km/h (4 Bft) 97,87 %
17.05.2021 18:36 14,3 C 15,6 C 12,3 C 81 % 1006,1 hPa 0,0 l/m 2 min 0 min 366 W/m 19,3 km/h (3 Bft) 95,74 %
17.05.2021 18:38 14,3 C 16,1 C 12,3 C 81 % 1006,2 hPa 0,0 l/m 2 min 0 min 246 W/m 16,1 km/h (3 Bft) 97,87 %
17.05.2021 18:40 14,4 C 17,2 C 12,3 C 81 % 1006,2 hPa 0,0 l/m 2 min 0 min 398 W/m 19,3 km/h (3 Bft) 95,65 %
17.05.2021 18:42 14,6 C 17,8 C 12,8 C 80 % 1006,2 hPa 0,0 l/m 2 min 0 min 453 W/m 16,1 km/h (3 Bft) 97,87 %
17.05.2021 18:44 14,7 C 16,7 C 12,8 C 80 % 1006,3 hPa 0,0 l/m 2 min 0 min 358 W/m 22,5 km/h (4 Bft) 95,74 %
17.05.2021 18:46 14,8 C 16,7 C 12,8 C 80 % 1006,3 hPa 0,0 l/m 2 min 0 min 258 W/m 19,3 km/h (3 Bft) 97,87 %
17.05.2021 18:48 14,8 C 15,6 C 12,8 C 79 % 1006,3 hPa 0,0 l/m 2 min 0 min 237 W/m 16,1 km/h (3 Bft) 97,87 %
17.05.2021 18:50 14,8 C 15,0 C 12,3 C 79 % 1006,4 hPa 0,0 l/m 2 min 0 min 212 W/m 16,1 km/h (3 Bft) 91,49 %
17.05.2021 18:52 14,7 C 15,0 C 12,3 C 79 % 1006,3 hPa 0,0 l/m 2 min 0 min 220 W/m 19,3 km/h (3 Bft) 97,83 %
17.05.2021 18:54 14,6 C 14,4 C 12,3 C 79 % 1006,3 hPa 0,0 l/m 2 min 0 min 215 W/m 22,5 km/h (4 Bft) 97,87 %
17.05.2021 18:56 14,5 C 14,4 C 12,3 C 79 % 1006,4 hPa 0,0 l/m 0 min 0 min 168 W/m 16,1 km/h (3 Bft) 97,87 %
17.05.2021 18:58 14,5 C 13,9 C 12,3 C 79 % 1006,4 hPa 0,0 l/m 0 min 0 min 111 W/m 19,3 km/h (3 Bft) 95,74 %
17.05.2021 19:00 14,4 C 13,9 C 11,7 C 79 % 1006,5 hPa 0,0 l/m 0 min 0 min 73 W/m 22,5 km/h (4 Bft) 91,49 %
17.05.2021 19:02 14,2 C 13,9 C 11,7 C 79 % 1006,5 hPa 0,0 l/m 0 min 0 min 71 W/m 19,3 km/h (3 Bft) 95,74 %
17.05.2021 19:04 14,2 C 13,9 C 11,7 C 80 % 1006,6 hPa 0,0 l/m 0 min 0 min 81 W/m 16,1 km/h (3 Bft) 80,43 %
17.05.2021 19:06 14,2 C 13,9 C 11,7 C 80 % 1006,5 hPa 0,0 l/m 0 min 0 min 94 W/m 16,1 km/h (3 Bft) 80,85 %
17.05.2021 19:08 14,2 C 13,9 C 11,7 C 80 % 1006,6 hPa 0,0 l/m 0 min 0 min 94 W/m 22,5 km/h (4 Bft) 85,11 %
17.05.2021 19:10 14,1 C 13,9 C 11,7 C 81 % 1006,7 hPa 0,0 l/m 0 min 0 min 94 W/m 19,3 km/h (3 Bft) 100,00 %
17.05.2021 19:12 14,1 C 13,3 C 11,7 C 81 % 1006,7 hPa 0,0 l/m 0 min 0 min 90 W/m 19,3 km/h (3 Bft) 85,11 %
17.05.2021 19:14 14,1 C 13,3 C 11,7 C 81 % 1006,8 hPa 0,0 l/m 0 min 0 min 105 W/m 22,5 km/h (4 Bft) 87,23 %
17.05.2021 19:16 14,0 C 13,3 C 11,7 C 80 % 1006,7 hPa 0,0 l/m 0 min 0 min 118 W/m 25,7 km/h (4 Bft) 73,91 %
17.05.2021 19:18 14,0 C 13,3 C 11,7 C 81 % 1006,8 hPa 0,0 l/m 0 min 0 min 119 W/m 16,1 km/h (3 Bft) 78,72 %
17.05.2021 19:20 14,0 C 13,3 C 11,7 C 81 % 1006,8 hPa 0,0 l/m 0 min 0 min 107 W/m 19,3 km/h (3 Bft) 87,23 %
17.05.2021 19:22 14,0 C 13,3 C 11,1 C 81 % 1006,8 hPa 0,0 l/m 0 min 0 min 93 W/m 16,1 km/h (3 Bft) 68,09 %
17.05.2021 19:24 14,0 C 13,3 C 11,1 C 81 % 1006,9 hPa 0,0 l/m 0 min 0 min 84 W/m 19,3 km/h (3 Bft) 72,34 %
17.05.2021 19:26 14,0 C 13,3 C 11,1 C 81 % 1006,9 hPa 0,0 l/m 0 min 0 min 84 W/m 12,9 km/h (3 Bft) 63,83 %
17.05.2021 19:28 14,0 C 13,3 C 11,1 C 81 % 1006,9 hPa 0,0 l/m 0 min 0 min 72 W/m 12,9 km/h (3 Bft) 73,91 %
17.05.2021 19:30 13,9 C 13,3 C 11,1 C 81 % 1006,9 hPa 0,0 l/m 0 min 0 min 75 W/m 12,9 km/h (3 Bft) 59,57 %
17.05.2021 19:32 13,9 C 13,3 C 11,1 C 81 % 1006,9 hPa 0,0 l/m 0 min 0 min 91 W/m 12,9 km/h (3 Bft) 85,11 %
17.05.2021 19:34 13,9 C 13,9 C 11,1 C 82 % 1007,0 hPa 0,0 l/m 0 min 0 min 97 W/m 16,1 km/h (3 Bft) 85,11 %
17.05.2021 19:36 13,9 C 13,9 C 11,1 C 82 % 1006,9 hPa 0,0 l/m 0 min 0 min 83 W/m 16,1 km/h (3 Bft) 89,36 %
17.05.2021 19:38 13,9 C 13,3 C 11,1 C 81 % 1007,0 hPa 0,0 l/m 0 min 0 min 65 W/m 16,1 km/h (3 Bft) 70,21 %
17.05.2021 19:40 13,9 C 13,3 C 11,1 C 81 % 1007,0 hPa 0,0 l/m 0 min 0 min 56 W/m 19,3 km/h (3 Bft) 91,30 %
17.05.2021 19:42 13,9 C 13,3 C 11,1 C 81 % 1007,1 hPa 0,0 l/m 0 min 0 min 51 W/m 9,7 km/h (2 Bft) 91,49 %
17.05.2021 19:44 13,9 C 13,3 C 11,1 C 81 % 1007,1 hPa 0,0 l/m 0 min 0 min 47 W/m 6,4 km/h (2 Bft) 91,49 %
17.05.2021 19:46 13,9 C 13,3 C 11,1 C 82 % 1007,1 hPa 0,0 l/m 0 min 0 min 46 W/m 16,1 km/h (3 Bft) 91,49 %
17.05.2021 19:48 13,9 C 13,3 C 11,1 C 82 % 1007,1 hPa 0,0 l/m 0 min 0 min 53 W/m 19,3 km/h (3 Bft) 95,74 %
17.05.2021 19:50 13,9 C 13,3 C 11,1 C 81 % 1007,1 hPa 0,0 l/m 0 min 0 min 52 W/m 9,7 km/h (2 Bft) 93,62 %
17.05.2021 19:52 13,8 C 13,3 C 11,1 C 81 % 1007,1 hPa 0,0 l/m 0 min 0 min 58 W/m 19,3 km/h (3 Bft) 95,65 %
17.05.2021 19:54 13,8 C 13,3 C 11,1 C 81 % 1007,2 hPa 0,0 l/m 0 min 0 min 63 W/m 12,9 km/h (3 Bft) 95,74 %
17.05.2021 19:56 13,8 C 13,3 C 11,1 C 80 % 1007,2 hPa 0,0 l/m 0 min 0 min 75 W/m 22,5 km/h (4 Bft) 91,49 %
17.05.2021 19:58 13,8 C 13,3 C 11,1 C 80 % 1007,3 hPa 0,0 l/m 0 min 0 min 85 W/m 16,1 km/h (3 Bft) 89,36 %
17.05.2021 20:00 13,8 C 13,3 C 11,1 C 80 % 1007,3 hPa 0,0 l/m 2 min 0 min 90 W/m 12,9 km/h (3 Bft) 91,49 %
17.05.2021 20:02 13,8 C 13,3 C 11,1 C 80 % 1007,3 hPa 0,0 l/m 2 min 0 min 101 W/m 19,3 km/h (3 Bft) 95,74 %
17.05.2021 20:04 13,8 C 13,3 C 11,1 C 80 % 1007,3 hPa 0,0 l/m 2 min 0 min 110 W/m 16,1 km/h (3 Bft) 86,96 %
17.05.2021 20:06 13,8 C 13,3 C 11,1 C 80 % 1007,4 hPa 0,0 l/m 2 min 0 min 97 W/m 32,2 km/h (5 Bft) 97,87 %
17.05.2021 20:08 13,8 C 13,3 C 11,1 C 80 % 1007,4 hPa 0,0 l/m 2 min 0 min 83 W/m 25,7 km/h (4 Bft) 100,00 %
17.05.2021 20:10 13,8 C 13,3 C 11,1 C 80 % 1007,5 hPa 0,0 l/m 0 min 0 min 60 W/m 16,1 km/h (3 Bft) 93,62 %
17.05.2021 20:12 13,8 C 13,3 C 11,1 C 80 % 1007,5 hPa 0,0 l/m 0 min 0 min 55 W/m 19,3 km/h (3 Bft) 100,00 %
17.05.2021 20:14 13,7 C 12,8 C 11,1 C 80 % 1007,5 hPa 0,0 l/m 0 min 0 min 46 W/m 16,1 km/h (3 Bft) 100,00 %
17.05.2021 20:16 13,6 C 12,8 C 11,1 C 80 % 1007,5 hPa 0,0 l/m 0 min 0 min 40 W/m 12,9 km/h (3 Bft) 100,00 %
17.05.2021 20:18 13,6 C 12,8 C 10,6 C 80 % 1007,6 hPa 0,0 l/m 0 min 0 min 39 W/m 12,9 km/h (3 Bft) 97,87 %
17.05.2021 20:20 13,6 C 12,8 C 10,6 C 81 % 1007,6 hPa 0,0 l/m 0 min 0 min 37 W/m 12,9 km/h (3 Bft) 100,00 %
17.05.2021 20:22 13,5 C 12,8 C 10,6 C 80 % 1007,7 hPa 0,0 l/m 0 min 0 min 37 W/m 12,9 km/h (3 Bft) 97,87 %
17.05.2021 20:24 13,5 C 12,8 C 10,6 C 80 % 1007,7 hPa 0,0 l/m 0 min 0 min 35 W/m 16,1 km/h (3 Bft) 100,00 %
17.05.2021 20:26 13,4 C 12,8 C 10,6 C 80 % 1007,8 hPa 0,0 l/m 0 min 0 min 33 W/m 16,1 km/h (3 Bft) 97,87 %
17.05.2021 20:28 13,4 C 12,8 C 10,6 C 80 % 1007,8 hPa 0,0 l/m 0 min 0 min 32 W/m 16,1 km/h (3 Bft) 100,00 %
17.05.2021 20:30 13,3 C 12,8 C 10,6 C 80 % 1007,8 hPa 0,0 l/m 0 min 0 min 32 W/m 9,7 km/h (2 Bft) 100,00 %
17.05.2021 20:32 13,3 C 12,2 C 10,6 C 80 % 1007,8 hPa 0,0 l/m 0 min 0 min 32 W/m 19,3 km/h (3 Bft) 97,87 %
17.05.2021 20:34 13,2 C 12,2 C 10,6 C 80 % 1007,8 hPa 0,0 l/m 0 min 0 min 31 W/m 12,9 km/h (3 Bft) 100,00 %
17.05.2021 20:36 13,1 C 12,2 C 10,6 C 80 % 1007,9 hPa 0,0 l/m 0 min 0 min 30 W/m 16,1 km/h (3 Bft) 100,00 %
17.05.2021 20:38 13,1 C 12,2 C 10,6 C 80 % 1007,9 hPa 0,0 l/m 0 min 0 min 27 W/m 16,1 km/h (3 Bft) 100,00 %
17.05.2021 20:40 13,1 C 12,2 C 10,0 C 80 % 1008,0 hPa 0,0 l/m 0 min 0 min 26 W/m 9,7 km/h (2 Bft) 100,00 %
17.05.2021 20:42 13,0 C 12,2 C 10,0 C 80 % 1008,0 hPa 0,0 l/m 0 min 0 min 24 W/m 12,9 km/h (3 Bft) 100,00 %
17.05.2021 20:44 13,0 C 12,2 C 10,0 C 81 % 1008,0 hPa 0,0 l/m 0 min 0 min 23 W/m 16,1 km/h (3 Bft) 100,00 %
17.05.2021 20:46 13,0 C 12,2 C 10,0 C 81 % 1008,0 hPa 0,0 l/m 0 min 0 min 22 W/m 9,7 km/h (2 Bft) 97,87 %
17.05.2021 20:48 12,9 C 12,2 C 10,0 C 81 % 1008,1 hPa 0,0 l/m 0 min 0 min 21 W/m 12,9 km/h (3 Bft) 100,00 %
17.05.2021 20:50 12,9 C 12,2 C 10,0 C 81 % 1008,2 hPa 0,0 l/m 0 min 0 min 19 W/m 19,3 km/h (3 Bft) 100,00 %
17.05.2021 20:52 12,8 C 11,7 C 10,0 C 81 % 1008,1 hPa 0,0 l/m 0 min 0 min 18 W/m 6,4 km/h (2 Bft) 100,00 %
17.05.2021 20:54 12,8 C 11,7 C 10,0 C 82 % 1008,2 hPa 0,0 l/m 0 min 0 min 18 W/m 9,7 km/h (2 Bft) 100,00 %
17.05.2021 20:56 12,7 C 11,7 C 10,0 C 82 % 1008,2 hPa 0,0 l/m 0 min 0 min 17 W/m 12,9 km/h (3 Bft) 97,87 %
17.05.2021 20:58 12,6 C 11,7 C 9,5 C 82 % 1008,3 hPa 0,0 l/m 0 min 0 min 16 W/m 12,9 km/h (3 Bft) 97,87 %
17.05.2021 21:00 12,6 C 11,7 C 9,5 C 82 % 1008,4 hPa 0,0 l/m 0 min 0 min 14 W/m 9,7 km/h (2 Bft) 100,00 %
17.05.2021 21:02 12,5 C 11,7 C 9,5 C 82 % 1008,4 hPa 0,0 l/m 0 min 0 min 14 W/m 9,7 km/h (2 Bft) 97,83 %
17.05.2021 21:04 12,5 C 11,7 C 9,5 C 82 % 1008,5 hPa 0,0 l/m 0 min 0 min 12 W/m 16,1 km/h (3 Bft) 97,87 %
17.05.2021 21:06 12,4 C 11,7 C 9,5 C 82 % 1008,5 hPa 0,0 l/m 0 min 0 min 12 W/m 19,3 km/h (3 Bft) 100,00 %
17.05.2021 21:08 12,4 C 11,7 C 9,5 C 82 % 1008,5 hPa 0,0 l/m 0 min 0 min 11 W/m 9,7 km/h (2 Bft) 100,00 %
17.05.2021 21:10 12,4 C 11,7 C 9,5 C 82 % 1008,5 hPa 0,0 l/m 0 min 0 min 9 W/m 12,9 km/h (3 Bft) 100,00 %
17.05.2021 21:12 12,3 C 11,7 C 9,5 C 83 % 1008,5 hPa 0,0 l/m 0 min 0 min 8 W/m 9,7 km/h (2 Bft) 100,00 %
17.05.2021 21:14 12,3 C 11,7 C 9,5 C 83 % 1008,6 hPa 0,0 l/m 0 min 0 min 7 W/m 9,7 km/h (2 Bft) 97,83 %
17.05.2021 21:16 12,2 C 11,1 C 9,5 C 83 % 1008,6 hPa 0,0 l/m 0 min 0 min 6 W/m 6,4 km/h (2 Bft) 97,87 %
17.05.2021 21:18 12,2 C 11,1 C 9,5 C 83 % 1008,6 hPa 0,0 l/m 0 min 0 min 5 W/m 12,9 km/h (3 Bft) 100,00 %
17.05.2021 21:20 12,1 C 11,1 C 9,5 C 83 % 1008,6 hPa 0,0 l/m 0 min 0 min 5 W/m 6,4 km/h (2 Bft) 100,00 %
17.05.2021 21:22 12,1 C 11,1 C 9,5 C 83 % 1008,7 hPa 0,0 l/m 0 min 0 min 2 W/m 6,4 km/h (2 Bft) 100,00 %
17.05.2021 21:24 12,0 C 11,1 C 9,5 C 83 % 1008,7 hPa 0,0 l/m 0 min 0 min 0 W/m 6,4 km/h (2 Bft) 100,00 %
17.05.2021 21:26 12,0 C 11,1 C 9,5 C 83 % 1008,7 hPa 0,0 l/m 0 min 0 min 0 W/m 9,7 km/h (2 Bft) 100,00 %
17.05.2021 21:28 12,0 C 11,1 C 8,9 C 83 % 1008,7 hPa 0,0 l/m 0 min 0 min 0 W/m 12,9 km/h (3 Bft) 100,00 %
17.05.2021 21:30 11,9 C 11,1 C 8,9 C 84 % 1008,8 hPa 0,0 l/m 0 min 0 min 0 W/m 12,9 km/h (3 Bft) 100,00 %
17.05.2021 21:32 11,9 C 11,1 C 8,9 C 84 % 1008,9 hPa 0,0 l/m 0 min 0 min 0 W/m 9,7 km/h (2 Bft) 97,87 %
17.05.2021 21:34 11,9 C 11,1 C 8,9 C 84 % 1008,8 hPa 0,0 l/m 0 min 0 min 0 W/m 12,9 km/h (3 Bft) 100,00 %
17.05.2021 21:36 11,8 C 11,1 C 8,9 C 84 % 1008,9 hPa 0,0 l/m 0 min 0 min 0 W/m 12,9 km/h (3 Bft) 95,74 %
17.05.2021 21:38 11,8 C 11,1 C 8,9 C 84 % 1008,9 hPa 0,0 l/m 0 min 0 min 0 W/m 9,7 km/h (2 Bft) 100,00 %
17.05.2021 21:40 11,8 C 11,1 C 8,9 C 84 % 1008,9 hPa 0,0 l/m 0 min 0 min 0 W/m 6,4 km/h (2 Bft) 100,00 %
17.05.2021 21:42 11,7 C 11,1 C 8,9 C 84 % 1008,9 hPa 0,0 l/m 0 min 0 min 0 W/m 16,1 km/h (3 Bft) 100,00 %
17.05.2021 21:44 11,7 C 10,6 C 8,9 C 84 % 1008,9 hPa 0,0 l/m 0 min 0 min 0 W/m 6,4 km/h (2 Bft) 97,87 %
17.05.2021 21:46 11,6 C 10,6 C 8,9 C 84 % 1008,8 hPa 0,0 l/m 0 min 0 min 0 W/m 6,4 km/h (2 Bft) 95,74 %
17.05.2021 21:48 11,6 C 10,6 C 8,9 C 84 % 1008,9 hPa 0,0 l/m 0 min 0 min 0 W/m 6,4 km/h (2 Bft) 97,87 %
17.05.2021 21:50 11,5 C 10,6 C 8,9 C 84 % 1008,9 hPa 0,0 l/m 0 min 0 min 0 W/m 6,4 km/h (2 Bft) 97,83 %
17.05.2021 21:52 11,5 C 10,6 C 8,9 C 84 % 1008,9 hPa 0,0 l/m 0 min 0 min 0 W/m 6,4 km/h (2 Bft) 74,47 %
17.05.2021 21:54 11,5 C 10,6 C 8,9 C 84 % 1009,0 hPa 0,0 l/m 0 min 0 min 0 W/m 3,2 km/h (1 Bft) 72,09 %
17.05.2021 21:56 11,5 C 10,6 C 8,9 C 84 % 1009,0 hPa 0,0 l/m 0 min 0 min 0 W/m 3,2 km/h (1 Bft) 95,74 %
17.05.2021 21:58 11,4 C 10,6 C 8,9 C 85 % 1009,0 hPa 0,0 l/m 0 min 0 min 0 W/m 9,7 km/h (2 Bft) 97,87 %
17.05.2021 22:00 11,4 C 10,6 C 8,9 C 85 % 1009,0 hPa 0,0 l/m 0 min 0 min 0 W/m 6,4 km/h (2 Bft) 95,74 %
17.05.2021 22:02 11,4 C 10,6 C 8,9 C 85 % 1009,1 hPa 0,0 l/m 0 min 0 min 0 W/m 9,7 km/h (2 Bft) 93,48 %
17.05.2021 22:04 11,4 C 10,6 C 8,9 C 85 % 1009,1 hPa 0,0 l/m 0 min 0 min 0 W/m 6,4 km/h (2 Bft) 95,74 %
17.05.2021 22:06 11,3 C 10,6 C 8,9 C 85 % 1009,1 hPa 0,0 l/m 0 min 0 min 0 W/m 16,1 km/h (3 Bft) 93,62 %
17.05.2021 22:08 11,3 C 10,6 C 8,9 C 85 % 1009,1 hPa 0,0 l/m 0 min 0 min 0 W/m 6,4 km/h (2 Bft) 95,74 %
17.05.2021 22:10 11,3 C 10,6 C 8,9 C 85 % 1009,1 hPa 0,0 l/m 0 min 0 min 0 W/m 3,2 km/h (1 Bft) 95,74 %
17.05.2021 22:12 11,3 C 10,6 C 8,4 C 85 % 1009,2 hPa 0,0 l/m 0 min 0 min 0 W/m 6,4 km/h (2 Bft) 95,65 %
17.05.2021 22:14 11,3 C 10,6 C 8,4 C 85 % 1009,2 hPa 0,0 l/m 0 min 0 min 0 W/m 6,4 km/h (2 Bft) 95,74 %
17.05.2021 22:16 11,2 C 10,0 C 8,4 C 85 % 1009,2 hPa 0,0 l/m 0 min 0 min 0 W/m 6,4 km/h (2 Bft) 93,62 %
17.05.2021 22:18 11,2 C 10,0 C 8,4 C 85 % 1009,2 hPa 0,0 l/m 0 min 0 min 0 W/m 6,4 km/h (2 Bft) 95,74 %
17.05.2021 22:20 11,1 C 10,0 C 8,4 C 85 % 1009,2 hPa 0,0 l/m 0 min 0 min 0 W/m 22,5 km/h (4 Bft) 93,62 %
17.05.2021 22:22 11,1 C 10,0 C 8,4 C 85 % 1009,2 hPa 0,0 l/m 0 min 0 min 0 W/m 6,4 km/h (2 Bft) 95,74 %
17.05.2021 22:24 11,1 C 10,0 C 8,4 C 85 % 1009,2 hPa 0,0 l/m 0 min 0 min 0 W/m 6,4 km/h (2 Bft) 94,59 %
17.05.2021 22:26 11,0 C 10,0 C 8,4 C 85 % 1009,2 hPa 0,0 l/m 0 min 0 min 0 W/m 6,4 km/h (2 Bft) 93,62 %
17.05.2021 22:28 11,0 C 10,0 C 8,4 C 85 % 1009,2 hPa 0,0 l/m 0 min 0 min 0 W/m 6,4 km/h (2 Bft) 95,65 %
17.05.2021 22:30 11,0 C 10,0 C 8,4 C 85 % 1009,2 hPa 0,0 l/m 0 min 0 min 0 W/m 3,2 km/h (1 Bft) 95,74 %
17.05.2021 22:32 11,0 C 10,0 C 8,4 C 85 % 1009,2 hPa 0,0 l/m 0 min 0 min 0 W/m 6,4 km/h (2 Bft) 89,36 %
17.05.2021 22:34 11,0 C 10,0 C 8,4 C 85 % 1009,3 hPa 0,0 l/m 0 min 0 min 0 W/m 6,4 km/h (2 Bft) 93,62 %
17.05.2021 22:36 10,9 C 10,0 C 8,4 C 86 % 1009,3 hPa 0,0 l/m 0 min 0 min 0 W/m 3,2 km/h (1 Bft) 95,74 %
17.05.2021 22:38 10,9 C 10,0 C 8,4 C 86 % 1009,3 hPa 0,0 l/m 0 min 0 min 0 W/m 3,2 km/h (1 Bft) 95,74 %
17.05.2021 22:40 10,9 C 10,0 C 8,4 C 85 % 1009,3 hPa 0,0 l/m 0 min 0 min 0 W/m 3,2 km/h (1 Bft) 97,83 %
17.05.2021 22:42 10,8 C 10,0 C 8,4 C 86 % 1009,3 hPa 0,0 l/m 0 min 0 min 0 W/m 3,2 km/h (1 Bft) 93,62 %
17.05.2021 22:44 10,8 C 10,0 C 7,8 C 86 % 1009,3 hPa 0,0 l/m 0 min 0 min 0 W/m 6,4 km/h (2 Bft) 97,87 %
17.05.2021 22:46 10,8 C 10,0 C 7,8 C 86 % 1009,3 hPa 0,0 l/m 0 min 0 min 0 W/m 3,2 km/h (1 Bft) 97,87 %
17.05.2021 22:48 10,7 C 9,4 C 7,8 C 86 % 1009,3 hPa 0,0 l/m 0 min 0 min 0 W/m 3,2 km/h (1 Bft) 97,87 %
17.05.2021 22:50 10,6 C 9,4 C 7,8 C 86 % 1009,3 hPa 0,0 l/m 0 min 0 min 0 W/m 3,2 km/h (1 Bft) 97,87 %
17.05.2021 22:52 10,6 C 9,4 C 7,8 C 86 % 1009,3 hPa 0,0 l/m 0 min 0 min 0 W/m 0,0 km/h (0 Bft) 97,83 %
17.05.2021 22:54 10,6 C 9,4 C 7,8 C 87 % 1009,4 hPa 0,0 l/m 0 min 0 min 0 W/m 3,2 km/h (1 Bft) 95,74 %
17.05.2021 22:56 10,5 C 9,4 C 7,8 C 86 % 1009,3 hPa 0,0 l/m 0 min 0 min 0 W/m 3,2 km/h (1 Bft) 97,87 %
17.05.2021 22:58 10,5 C 9,4 C 7,8 C 87 % 1009,3 hPa 0,0 l/m 0 min 0 min 0 W/m 3,2 km/h (1 Bft) 97,87 %
17.05.2021 23:00 10,5 C 9,4 C 7,8 C 87 % 1009,4 hPa 0,0 l/m 0 min 0 min 0 W/m 3,2 km/h (1 Bft) 100,00 %
17.05.2021 23:02 10,5 C 9,4 C 7,8 C 87 % 1009,4 hPa 0,0 l/m 0 min 0 min 0 W/m 3,2 km/h (1 Bft) 97,87 %
17.05.2021 23:04 10,4 C 9,4 C 7,8 C 87 % 1009,4 hPa 0,0 l/m 0 min 0 min 0 W/m 3,2 km/h (1 Bft) 97,83 %
17.05.2021 23:06 10,4 C 9,4 C 7,8 C 87 % 1009,4 hPa 0,0 l/m 0 min 0 min 0 W/m 3,2 km/h (1 Bft) 97,87 %
17.05.2021 23:08 10,4 C 9,4 C 7,8 C 87 % 1009,4 hPa 0,0 l/m 0 min 0 min 0 W/m 0,0 km/h (0 Bft) 97,87 %
17.05.2021 23:10 10,4 C 9,4 C 7,8 C 87 % 1009,4 hPa 0,0 l/m 0 min 0 min 0 W/m 0,0 km/h (0 Bft) 95,74 %
17.05.2021 23:12 10,3 C 8,9 C 7,3 C 87 % 1009,4 hPa 0,0 l/m 0 min 0 min 0 W/m 3,2 km/h (1 Bft) 97,87 %
17.05.2021 23:14 10,3 C 8,9 C 7,3 C 87 % 1009,4 hPa 0,0 l/m 0 min 0 min 0 W/m 0,0 km/h (0 Bft) 95,65 %
17.05.2021 23:16 10,3 C 8,9 C 7,3 C 87 % 1009,5 hPa 0,0 l/m 0 min 0 min 0 W/m 3,2 km/h (1 Bft) 97,87 %
17.05.2021 23:18 10,2 C 8,9 C 7,3 C 87 % 1009,6 hPa 0,0 l/m 0 min 0 min 0 W/m 3,2 km/h (1 Bft) 97,87 %
17.05.2021 23:20 10,1 C 8,9 C 7,3 C 88 % 1009,6 hPa 0,0 l/m 0 min 0 min 0 W/m 3,2 km/h (1 Bft) 95,83 %
17.05.2021 23:23 10,1 C 8,9 C 7,3 C 88 % 1009,6 hPa 0,0 l/m 0 min 0 min 0 W/m 3,2 km/h (1 Bft) 97,56 %
17.05.2021 23:24 10,1 C 8,9 C 7,3 C 88 % 1009,6 hPa 0,0 l/m 0 min 0 min 0 W/m 3,2 km/h (1 Bft) 100,00 %
17.05.2021 23:26 10,0 C 8,9 C 7,3 C 88 % 1009,6 hPa 0,0 l/m 0 min 0 min 0 W/m 3,2 km/h (1 Bft) 97,87 %
17.05.2021 23:28 10,0 C 8,9 C 7,3 C 88 % 1009,7 hPa 0,0 l/m 0 min 0 min 0 W/m 0,0 km/h (0 Bft) 97,87 %
17.05.2021 23:30 10,0 C 8,9 C 7,3 C 88 % 1009,7 hPa 0,0 l/m 0 min 0 min 0 W/m 3,2 km/h (1 Bft) 97,87 %
17.05.2021 23:32 10,0 C 8,9 C 7,3 C 88 % 1009,7 hPa 0,0 l/m 0 min 0 min 0 W/m 0,0 km/h (0 Bft) 97,87 %
17.05.2021 23:34 9,9 C 8,9 C 7,3 C 88 % 1009,7 hPa 0,0 l/m 0 min 0 min 0 W/m 3,2 km/h (1 Bft) 97,87 %
17.05.2021 23:36 9,9 C 8,9 C 7,3 C 89 % 1009,7 hPa 0,0 l/m 0 min 0 min 0 W/m 0,0 km/h (0 Bft) 97,83 %
17.05.2021 23:38 9,9 C 8,9 C 7,3 C 89 % 1009,7 hPa 0,0 l/m 0 min 0 min 0 W/m 3,2 km/h (1 Bft) 97,87 %
17.05.2021 23:40 9,9 C 8,9 C 7,3 C 89 % 1009,7 hPa 0,0 l/m 0 min 0 min 0 W/m 3,2 km/h (1 Bft) 97,87 %
17.05.2021 23:42 9,8 C 8,9 C 7,3 C 89 % 1009,7 hPa 0,0 l/m 0 min 0 min 0 W/m 3,2 km/h (1 Bft) 97,87 %
17.05.2021 23:44 9,8 C 8,9 C 7,3 C 89 % 1009,7 hPa 0,0 l/m 0 min 0 min 0 W/m 3,2 km/h (1 Bft) 97,87 %
17.05.2021 23:46 9,8 C 8,9 C 7,3 C 89 % 1009,7 hPa 0,0 l/m 0 min 0 min 0 W/m 3,2 km/h (1 Bft) 95,74 %
17.05.2021 23:48 9,8 C 8,9 C 7,3 C 89 % 1009,8 hPa 0,0 l/m 0 min 0 min 0 W/m 3,2 km/h (1 Bft) 97,83 %
17.05.2021 23:50 9,7 C 8,9 C 7,3 C 89 % 1009,8 hPa 0,0 l/m 0 min 0 min 0 W/m 3,2 km/h (1 Bft) 97,87 %
17.05.2021 23:52 9,7 C 8,3 C 7,3 C 89 % 1009,9 hPa 0,0 l/m 0 min 0 min 0 W/m 3,2 km/h (1 Bft) 97,87 %
17.05.2021 23:54 9,6 C 8,3 C 7,3 C 89 % 1009,9 hPa 0,0 l/m 0 min 0 min 0 W/m 3,2 km/h (1 Bft) 97,87 %
17.05.2021 23:56 9,6 C 8,3 C 7,3 C 89 % 1009,9 hPa 0,0 l/m 0 min 0 min 0 W/m 3,2 km/h (1 Bft) 97,87 %
17.05.2021 23:58 9,6 C 8,3 C 7,3 C 89 % 1010,0 hPa 0,0 l/m 0 min 0 min 0 W/m 6,4 km/h (2 Bft) 93,62 %
_ Min-Zeit 23:54 23:52 00:00 11:56 00:16 - - - - 22:52 00:02
Minimum _ 9,6 C 8,3 C 7,3 C 75 % 1001,1 hPa - - - - 0,0 km/h (0 Bft) 14,29 %
_ Max-Zeit 11:54 11:48 13:10 02:10 23:58 12:12 07:30 01:48 13:08 13:06 00:54
Maximum _ 15,3 C 17,8 C 18,4 C 95 % 1010,0 hPa 0,4 l/m 2 min 2 min 1123 W/m 48,3 km/h
SO (6 Bft)
100,00 %
Durchschnitt _ 12,0 C 11,8 C 9,9 C 88 % 1003,7 hPa #1,6 l/m #2:52 h #2:14 h 214 W/m 15,4 km/h (3 Bft) 96,38 %
© 2021 W. Hausmann